<?xml version="1.0" encoding="UTF-8" standalone="no" ?>
<gpx xmlns="http://www.topografix.com/GPX/1/1" xmlns:xsi="http://www.w3.org/2001/XMLSchema-instance" xsi:schemaLocation="http://www.topografix.com/GPX/1/1 http://www.topografix.com/GPX/1/1/gpx.xsd" version="1.1" creator="VisuGPX - https://www.visugpx.com">
  <metadata>
    <name>La Dombe</name>
    <desc><![CDATA[Sortie Dimanche 7 Septembre 2014]]></desc>
  </metadata>
  <trk>
    <name><![CDATA[La Dombe]]></name>
    <trkseg>
      <trkpt lat="45.88266" lon="4.8636">
        <ele>306</ele>
        <time>2014-09-07T07:03:09.000Z</time>
      </trkpt>
      <trkpt lat="45.88266" lon="4.8636">
        <ele>306</ele>
        <time>2014-09-07T07:03:10.000Z</time>
      </trkpt>
      <trkpt lat="45.88272" lon="4.86339">
        <ele>305.79998779297</ele>
        <time>2014-09-07T07:03:43.000Z</time>
      </trkpt>
      <trkpt lat="45.88279" lon="4.86333">
        <ele>305.79998779297</ele>
        <time>2014-09-07T07:03:46.000Z</time>
      </trkpt>
      <trkpt lat="45.88299" lon="4.86327">
        <ele>305.60000610352</ele>
        <time>2014-09-07T07:03:52.000Z</time>
      </trkpt>
      <trkpt lat="45.88321" lon="4.86329">
        <ele>305.20001220703</ele>
        <time>2014-09-07T07:03:58.000Z</time>
      </trkpt>
      <trkpt lat="45.88334" lon="4.86319">
        <ele>305</ele>
        <time>2014-09-07T07:04:02.000Z</time>
      </trkpt>
      <trkpt lat="45.88337" lon="4.86295">
        <ele>305.20001220703</ele>
        <time>2014-09-07T07:04:07.000Z</time>
      </trkpt>
      <trkpt lat="45.88336" lon="4.8629">
        <ele>305.20001220703</ele>
        <time>2014-09-07T07:04:08.000Z</time>
      </trkpt>
      <trkpt lat="45.88327" lon="4.8628">
        <ele>305.60000610352</ele>
        <time>2014-09-07T07:04:12.000Z</time>
      </trkpt>
      <trkpt lat="45.88323" lon="4.86279">
        <ele>305.79998779297</ele>
        <time>2014-09-07T07:04:13.000Z</time>
      </trkpt>
      <trkpt lat="45.88296" lon="4.86275">
        <ele>306.20001220703</ele>
        <time>2014-09-07T07:04:21.000Z</time>
      </trkpt>
      <trkpt lat="45.88295" lon="4.86275">
        <ele>306.20001220703</ele>
        <time>2014-09-07T07:04:23.000Z</time>
      </trkpt>
      <trkpt lat="45.88278" lon="4.86263">
        <ele>306.39999389648</ele>
        <time>2014-09-07T07:05:12.000Z</time>
      </trkpt>
      <trkpt lat="45.88276" lon="4.86265">
        <ele>306.39999389648</ele>
        <time>2014-09-07T07:05:14.000Z</time>
      </trkpt>
      <trkpt lat="45.88272" lon="4.86266">
        <ele>306.39999389648</ele>
        <time>2014-09-07T07:05:20.000Z</time>
      </trkpt>
      <trkpt lat="45.88278" lon="4.86262">
        <ele>306.39999389648</ele>
        <time>2014-09-07T07:05:28.000Z</time>
      </trkpt>
      <trkpt lat="45.88286" lon="4.86258">
        <ele>306.39999389648</ele>
        <time>2014-09-07T07:05:35.000Z</time>
      </trkpt>
      <trkpt lat="45.88293" lon="4.86254">
        <ele>306.39999389648</ele>
        <time>2014-09-07T07:05:50.000Z</time>
      </trkpt>
      <trkpt lat="45.88276" lon="4.86244">
        <ele>306.60000610352</ele>
        <time>2014-09-07T07:06:30.000Z</time>
      </trkpt>
      <trkpt lat="45.88274" lon="4.86247">
        <ele>306.60000610352</ele>
        <time>2014-09-07T07:06:33.000Z</time>
      </trkpt>
      <trkpt lat="45.88274" lon="4.86251">
        <ele>306.39999389648</ele>
        <time>2014-09-07T07:06:36.000Z</time>
      </trkpt>
      <trkpt lat="45.88283" lon="4.86253">
        <ele>306.39999389648</ele>
        <time>2014-09-07T07:06:42.000Z</time>
      </trkpt>
      <trkpt lat="45.88296" lon="4.86256">
        <ele>306.39999389648</ele>
        <time>2014-09-07T07:06:49.000Z</time>
      </trkpt>
      <trkpt lat="45.88307" lon="4.86258">
        <ele>306.39999389648</ele>
        <time>2014-09-07T07:06:55.000Z</time>
      </trkpt>
      <trkpt lat="45.88313" lon="4.8626">
        <ele>306.20001220703</ele>
        <time>2014-09-07T07:06:58.000Z</time>
      </trkpt>
      <trkpt lat="45.88315" lon="4.86277">
        <ele>306</ele>
        <time>2014-09-07T07:07:03.000Z</time>
      </trkpt>
      <trkpt lat="45.88311" lon="4.86309">
        <ele>305.60000610352</ele>
        <time>2014-09-07T07:07:10.000Z</time>
      </trkpt>
      <trkpt lat="45.88306" lon="4.86343">
        <ele>305.39999389648</ele>
        <time>2014-09-07T07:07:16.000Z</time>
      </trkpt>
      <trkpt lat="45.88302" lon="4.86391">
        <ele>304.60000610352</ele>
        <time>2014-09-07T07:07:23.000Z</time>
      </trkpt>
      <trkpt lat="45.883" lon="4.86443">
        <ele>303.39999389648</ele>
        <time>2014-09-07T07:07:29.000Z</time>
      </trkpt>
      <trkpt lat="45.88298" lon="4.86461">
        <ele>303</ele>
        <time>2014-09-07T07:07:31.000Z</time>
      </trkpt>
      <trkpt lat="45.88288" lon="4.865">
        <ele>301.79998779297</ele>
        <time>2014-09-07T07:07:35.000Z</time>
      </trkpt>
      <trkpt lat="45.88281" lon="4.86558">
        <ele>299.39999389648</ele>
        <time>2014-09-07T07:07:41.000Z</time>
      </trkpt>
      <trkpt lat="45.88275" lon="4.86627">
        <ele>297.39999389648</ele>
        <time>2014-09-07T07:07:49.000Z</time>
      </trkpt>
      <trkpt lat="45.88275" lon="4.86636">
        <ele>297.20001220703</ele>
        <time>2014-09-07T07:07:50.000Z</time>
      </trkpt>
      <trkpt lat="45.8826" lon="4.8666">
        <ele>297.20001220703</ele>
        <time>2014-09-07T07:07:54.000Z</time>
      </trkpt>
      <trkpt lat="45.88254" lon="4.86661">
        <ele>297.20001220703</ele>
        <time>2014-09-07T07:07:55.000Z</time>
      </trkpt>
      <trkpt lat="45.88211" lon="4.86671">
        <ele>298.39999389648</ele>
        <time>2014-09-07T07:08:03.000Z</time>
      </trkpt>
      <trkpt lat="45.88187" lon="4.86677">
        <ele>299.20001220703</ele>
        <time>2014-09-07T07:08:08.000Z</time>
      </trkpt>
      <trkpt lat="45.88181" lon="4.86693">
        <ele>298.79998779297</ele>
        <time>2014-09-07T07:08:12.000Z</time>
      </trkpt>
      <trkpt lat="45.88188" lon="4.86741">
        <ele>298</ele>
        <time>2014-09-07T07:08:22.000Z</time>
      </trkpt>
      <trkpt lat="45.88194" lon="4.86774">
        <ele>297.79998779297</ele>
        <time>2014-09-07T07:08:29.000Z</time>
      </trkpt>
      <trkpt lat="45.88201" lon="4.86818">
        <ele>297.79998779297</ele>
        <time>2014-09-07T07:08:37.000Z</time>
      </trkpt>
      <trkpt lat="45.88205" lon="4.86856">
        <ele>297.60000610352</ele>
        <time>2014-09-07T07:08:45.000Z</time>
      </trkpt>
      <trkpt lat="45.88207" lon="4.86908">
        <ele>298</ele>
        <time>2014-09-07T07:08:54.000Z</time>
      </trkpt>
      <trkpt lat="45.8821" lon="4.86951">
        <ele>298.39999389648</ele>
        <time>2014-09-07T07:09:01.000Z</time>
      </trkpt>
      <trkpt lat="45.88211" lon="4.86971">
        <ele>298.39999389648</ele>
        <time>2014-09-07T07:09:04.000Z</time>
      </trkpt>
      <trkpt lat="45.88214" lon="4.87028">
        <ele>298.39999389648</ele>
        <time>2014-09-07T07:09:13.000Z</time>
      </trkpt>
      <trkpt lat="45.88214" lon="4.87034">
        <ele>298.20001220703</ele>
        <time>2014-09-07T07:09:14.000Z</time>
      </trkpt>
      <trkpt lat="45.88218" lon="4.8706">
        <ele>298.20001220703</ele>
        <time>2014-09-07T07:09:18.000Z</time>
      </trkpt>
      <trkpt lat="45.88224" lon="4.87121">
        <ele>298</ele>
        <time>2014-09-07T07:09:27.000Z</time>
      </trkpt>
      <trkpt lat="45.88229" lon="4.87181">
        <ele>297.39999389648</ele>
        <time>2014-09-07T07:09:36.000Z</time>
      </trkpt>
      <trkpt lat="45.88235" lon="4.87249">
        <ele>297.60000610352</ele>
        <time>2014-09-07T07:09:47.000Z</time>
      </trkpt>
      <trkpt lat="45.88242" lon="4.8727">
        <ele>297.79998779297</ele>
        <time>2014-09-07T07:09:51.000Z</time>
      </trkpt>
      <trkpt lat="45.88245" lon="4.87289">
        <ele>298</ele>
        <time>2014-09-07T07:09:56.000Z</time>
      </trkpt>
      <trkpt lat="45.88244" lon="4.8731">
        <ele>298</ele>
        <time>2014-09-07T07:10:00.000Z</time>
      </trkpt>
      <trkpt lat="45.88242" lon="4.87329">
        <ele>298</ele>
        <time>2014-09-07T07:10:04.000Z</time>
      </trkpt>
      <trkpt lat="45.88248" lon="4.87338">
        <ele>298</ele>
        <time>2014-09-07T07:10:08.000Z</time>
      </trkpt>
      <trkpt lat="45.88267" lon="4.87349">
        <ele>298</ele>
        <time>2014-09-07T07:10:16.000Z</time>
      </trkpt>
      <trkpt lat="45.88274" lon="4.87362">
        <ele>298</ele>
        <time>2014-09-07T07:10:21.000Z</time>
      </trkpt>
      <trkpt lat="45.88275" lon="4.87372">
        <ele>298</ele>
        <time>2014-09-07T07:10:24.000Z</time>
      </trkpt>
      <trkpt lat="45.88275" lon="4.87376">
        <ele>298</ele>
        <time>2014-09-07T07:10:29.000Z</time>
      </trkpt>
      <trkpt lat="45.88275" lon="4.87376">
        <ele>298</ele>
        <time>2014-09-07T07:10:30.000Z</time>
      </trkpt>
      <trkpt lat="45.88276" lon="4.87395">
        <ele>297.79998779297</ele>
        <time>2014-09-07T07:19:09.000Z</time>
      </trkpt>
      <trkpt lat="45.88286" lon="4.87411">
        <ele>297.60000610352</ele>
        <time>2014-09-07T07:19:16.000Z</time>
      </trkpt>
      <trkpt lat="45.88294" lon="4.87429">
        <ele>297.39999389648</ele>
        <time>2014-09-07T07:19:23.000Z</time>
      </trkpt>
      <trkpt lat="45.88301" lon="4.8745">
        <ele>297</ele>
        <time>2014-09-07T07:19:29.000Z</time>
      </trkpt>
      <trkpt lat="45.88314" lon="4.87482">
        <ele>296.79998779297</ele>
        <time>2014-09-07T07:19:37.000Z</time>
      </trkpt>
      <trkpt lat="45.88328" lon="4.87526">
        <ele>296.39999389648</ele>
        <time>2014-09-07T07:19:47.000Z</time>
      </trkpt>
      <trkpt lat="45.88341" lon="4.87555">
        <ele>296.20001220703</ele>
        <time>2014-09-07T07:19:54.000Z</time>
      </trkpt>
      <trkpt lat="45.88359" lon="4.87589">
        <ele>295.79998779297</ele>
        <time>2014-09-07T07:20:02.000Z</time>
      </trkpt>
      <trkpt lat="45.88378" lon="4.8762">
        <ele>295.20001220703</ele>
        <time>2014-09-07T07:20:09.000Z</time>
      </trkpt>
      <trkpt lat="45.88404" lon="4.87664">
        <ele>294.39999389648</ele>
        <time>2014-09-07T07:20:18.000Z</time>
      </trkpt>
      <trkpt lat="45.88414" lon="4.87679">
        <ele>294</ele>
        <time>2014-09-07T07:20:21.000Z</time>
      </trkpt>
      <trkpt lat="45.88431" lon="4.87704">
        <ele>293.60000610352</ele>
        <time>2014-09-07T07:20:26.000Z</time>
      </trkpt>
      <trkpt lat="45.88443" lon="4.87727">
        <ele>293.20001220703</ele>
        <time>2014-09-07T07:20:30.000Z</time>
      </trkpt>
      <trkpt lat="45.88462" lon="4.87767">
        <ele>292.39999389648</ele>
        <time>2014-09-07T07:20:36.000Z</time>
      </trkpt>
      <trkpt lat="45.88472" lon="4.87798">
        <ele>291.79998779297</ele>
        <time>2014-09-07T07:20:40.000Z</time>
      </trkpt>
      <trkpt lat="45.88484" lon="4.87845">
        <ele>290.39999389648</ele>
        <time>2014-09-07T07:20:46.000Z</time>
      </trkpt>
      <trkpt lat="45.88492" lon="4.87877">
        <ele>289.39999389648</ele>
        <time>2014-09-07T07:20:50.000Z</time>
      </trkpt>
      <trkpt lat="45.88509" lon="4.87894">
        <ele>287.79998779297</ele>
        <time>2014-09-07T07:20:54.000Z</time>
      </trkpt>
      <trkpt lat="45.88524" lon="4.87897">
        <ele>287.39999389648</ele>
        <time>2014-09-07T07:20:57.000Z</time>
      </trkpt>
      <trkpt lat="45.88563" lon="4.8789">
        <ele>286.60000610352</ele>
        <time>2014-09-07T07:21:05.000Z</time>
      </trkpt>
      <trkpt lat="45.88601" lon="4.87877">
        <ele>283.20001220703</ele>
        <time>2014-09-07T07:21:11.000Z</time>
      </trkpt>
      <trkpt lat="45.88647" lon="4.87858">
        <ele>280</ele>
        <time>2014-09-07T07:21:17.000Z</time>
      </trkpt>
      <trkpt lat="45.88697" lon="4.87839">
        <ele>278.79998779297</ele>
        <time>2014-09-07T07:21:24.000Z</time>
      </trkpt>
      <trkpt lat="45.8874" lon="4.87824">
        <ele>274.20001220703</ele>
        <time>2014-09-07T07:21:31.000Z</time>
      </trkpt>
      <trkpt lat="45.8877" lon="4.87813">
        <ele>273.20001220703</ele>
        <time>2014-09-07T07:21:36.000Z</time>
      </trkpt>
      <trkpt lat="45.88801" lon="4.87795">
        <ele>271.39999389648</ele>
        <time>2014-09-07T07:21:42.000Z</time>
      </trkpt>
      <trkpt lat="45.88828" lon="4.87767">
        <ele>271</ele>
        <time>2014-09-07T07:21:49.000Z</time>
      </trkpt>
      <trkpt lat="45.88855" lon="4.87733">
        <ele>270.39999389648</ele>
        <time>2014-09-07T07:21:57.000Z</time>
      </trkpt>
      <trkpt lat="45.88858" lon="4.87728">
        <ele>270.20001220703</ele>
        <time>2014-09-07T07:21:58.000Z</time>
      </trkpt>
      <trkpt lat="45.88875" lon="4.87695">
        <ele>269.79998779297</ele>
        <time>2014-09-07T07:22:06.000Z</time>
      </trkpt>
      <trkpt lat="45.88885" lon="4.87664">
        <ele>268.79998779297</ele>
        <time>2014-09-07T07:22:13.000Z</time>
      </trkpt>
      <trkpt lat="45.88891" lon="4.87627">
        <ele>268</ele>
        <time>2014-09-07T07:22:21.000Z</time>
      </trkpt>
      <trkpt lat="45.88903" lon="4.876">
        <ele>268</ele>
        <time>2014-09-07T07:22:27.000Z</time>
      </trkpt>
      <trkpt lat="45.88919" lon="4.87571">
        <ele>268</ele>
        <time>2014-09-07T07:22:35.000Z</time>
      </trkpt>
      <trkpt lat="45.88929" lon="4.87551">
        <ele>267.39999389648</ele>
        <time>2014-09-07T07:22:42.000Z</time>
      </trkpt>
      <trkpt lat="45.88939" lon="4.87542">
        <ele>266.79998779297</ele>
        <time>2014-09-07T07:22:48.000Z</time>
      </trkpt>
      <trkpt lat="45.88949" lon="4.87548">
        <ele>266.79998779297</ele>
        <time>2014-09-07T07:22:54.000Z</time>
      </trkpt>
      <trkpt lat="45.88965" lon="4.87564">
        <ele>266.79998779297</ele>
        <time>2014-09-07T07:23:05.000Z</time>
      </trkpt>
      <trkpt lat="45.88974" lon="4.87579">
        <ele>267</ele>
        <time>2014-09-07T07:23:13.000Z</time>
      </trkpt>
      <trkpt lat="45.88981" lon="4.87592">
        <ele>267.20001220703</ele>
        <time>2014-09-07T07:23:20.000Z</time>
      </trkpt>
      <trkpt lat="45.8899" lon="4.87606">
        <ele>267.60000610352</ele>
        <time>2014-09-07T07:23:28.000Z</time>
      </trkpt>
      <trkpt lat="45.89" lon="4.87624">
        <ele>268</ele>
        <time>2014-09-07T07:23:37.000Z</time>
      </trkpt>
      <trkpt lat="45.89007" lon="4.87637">
        <ele>268.60000610352</ele>
        <time>2014-09-07T07:23:44.000Z</time>
      </trkpt>
      <trkpt lat="45.89016" lon="4.87653">
        <ele>269</ele>
        <time>2014-09-07T07:23:53.000Z</time>
      </trkpt>
      <trkpt lat="45.89024" lon="4.87667">
        <ele>269.60000610352</ele>
        <time>2014-09-07T07:24:01.000Z</time>
      </trkpt>
      <trkpt lat="45.89032" lon="4.87681">
        <ele>270.20001220703</ele>
        <time>2014-09-07T07:24:09.000Z</time>
      </trkpt>
      <trkpt lat="45.8904" lon="4.87698">
        <ele>270.60000610352</ele>
        <time>2014-09-07T07:24:18.000Z</time>
      </trkpt>
      <trkpt lat="45.89045" lon="4.87707">
        <ele>271</ele>
        <time>2014-09-07T07:24:24.000Z</time>
      </trkpt>
      <trkpt lat="45.89048" lon="4.87713">
        <ele>271.39999389648</ele>
        <time>2014-09-07T07:24:30.000Z</time>
      </trkpt>
      <trkpt lat="45.89054" lon="4.87726">
        <ele>272.20001220703</ele>
        <time>2014-09-07T07:24:37.000Z</time>
      </trkpt>
      <trkpt lat="45.89064" lon="4.87741">
        <ele>273.20001220703</ele>
        <time>2014-09-07T07:24:45.000Z</time>
      </trkpt>
      <trkpt lat="45.89072" lon="4.87756">
        <ele>274.20001220703</ele>
        <time>2014-09-07T07:24:52.000Z</time>
      </trkpt>
      <trkpt lat="45.8908" lon="4.87771">
        <ele>275.20001220703</ele>
        <time>2014-09-07T07:25:00.000Z</time>
      </trkpt>
      <trkpt lat="45.8909" lon="4.87786">
        <ele>276.20001220703</ele>
        <time>2014-09-07T07:25:08.000Z</time>
      </trkpt>
      <trkpt lat="45.89097" lon="4.87799">
        <ele>277.60000610352</ele>
        <time>2014-09-07T07:25:14.000Z</time>
      </trkpt>
      <trkpt lat="45.89107" lon="4.87819">
        <ele>279.79998779297</ele>
        <time>2014-09-07T07:25:22.000Z</time>
      </trkpt>
      <trkpt lat="45.89118" lon="4.87837">
        <ele>281.79998779297</ele>
        <time>2014-09-07T07:25:30.000Z</time>
      </trkpt>
      <trkpt lat="45.89128" lon="4.87856">
        <ele>284</ele>
        <time>2014-09-07T07:25:38.000Z</time>
      </trkpt>
      <trkpt lat="45.89141" lon="4.8788">
        <ele>286.39999389648</ele>
        <time>2014-09-07T07:25:47.000Z</time>
      </trkpt>
      <trkpt lat="45.8915" lon="4.87908">
        <ele>288</ele>
        <time>2014-09-07T07:25:55.000Z</time>
      </trkpt>
      <trkpt lat="45.89148" lon="4.87929">
        <ele>289.20001220703</ele>
        <time>2014-09-07T07:26:01.000Z</time>
      </trkpt>
      <trkpt lat="45.89138" lon="4.87958">
        <ele>291</ele>
        <time>2014-09-07T07:26:10.000Z</time>
      </trkpt>
      <trkpt lat="45.89126" lon="4.87987">
        <ele>290.20001220703</ele>
        <time>2014-09-07T07:26:20.000Z</time>
      </trkpt>
      <trkpt lat="45.89108" lon="4.88031">
        <ele>290.39999389648</ele>
        <time>2014-09-07T07:26:33.000Z</time>
      </trkpt>
      <trkpt lat="45.89095" lon="4.88065">
        <ele>291.60000610352</ele>
        <time>2014-09-07T07:26:42.000Z</time>
      </trkpt>
      <trkpt lat="45.89087" lon="4.88096">
        <ele>292.39999389648</ele>
        <time>2014-09-07T07:26:50.000Z</time>
      </trkpt>
      <trkpt lat="45.89083" lon="4.88135">
        <ele>293.20001220703</ele>
        <time>2014-09-07T07:27:00.000Z</time>
      </trkpt>
      <trkpt lat="45.89084" lon="4.88172">
        <ele>294</ele>
        <time>2014-09-07T07:27:07.000Z</time>
      </trkpt>
      <trkpt lat="45.89086" lon="4.8819">
        <ele>294.20001220703</ele>
        <time>2014-09-07T07:27:12.000Z</time>
      </trkpt>
      <trkpt lat="45.89086" lon="4.88192">
        <ele>294.20001220703</ele>
        <time>2014-09-07T07:27:13.000Z</time>
      </trkpt>
      <trkpt lat="45.89089" lon="4.88208">
        <ele>294.39999389648</ele>
        <time>2014-09-07T07:27:18.000Z</time>
      </trkpt>
      <trkpt lat="45.89088" lon="4.88239">
        <ele>294.39999389648</ele>
        <time>2014-09-07T07:27:27.000Z</time>
      </trkpt>
      <trkpt lat="45.89087" lon="4.88272">
        <ele>294.39999389648</ele>
        <time>2014-09-07T07:27:36.000Z</time>
      </trkpt>
      <trkpt lat="45.89087" lon="4.883">
        <ele>294.39999389648</ele>
        <time>2014-09-07T07:27:44.000Z</time>
      </trkpt>
      <trkpt lat="45.89087" lon="4.8833">
        <ele>294.39999389648</ele>
        <time>2014-09-07T07:27:53.000Z</time>
      </trkpt>
      <trkpt lat="45.89088" lon="4.88362">
        <ele>294.79998779297</ele>
        <time>2014-09-07T07:28:02.000Z</time>
      </trkpt>
      <trkpt lat="45.89089" lon="4.88389">
        <ele>295.20001220703</ele>
        <time>2014-09-07T07:28:09.000Z</time>
      </trkpt>
      <trkpt lat="45.8909" lon="4.88431">
        <ele>295.39999389648</ele>
        <time>2014-09-07T07:28:19.000Z</time>
      </trkpt>
      <trkpt lat="45.89091" lon="4.88477">
        <ele>295.20001220703</ele>
        <time>2014-09-07T07:28:28.000Z</time>
      </trkpt>
      <trkpt lat="45.89093" lon="4.88528">
        <ele>295.39999389648</ele>
        <time>2014-09-07T07:28:36.000Z</time>
      </trkpt>
      <trkpt lat="45.89101" lon="4.88602">
        <ele>294.39999389648</ele>
        <time>2014-09-07T07:28:46.000Z</time>
      </trkpt>
      <trkpt lat="45.89105" lon="4.88642">
        <ele>293.20001220703</ele>
        <time>2014-09-07T07:28:53.000Z</time>
      </trkpt>
      <trkpt lat="45.89112" lon="4.88698">
        <ele>291.79998779297</ele>
        <time>2014-09-07T07:29:03.000Z</time>
      </trkpt>
      <trkpt lat="45.89119" lon="4.88755">
        <ele>290.60000610352</ele>
        <time>2014-09-07T07:29:11.000Z</time>
      </trkpt>
      <trkpt lat="45.89121" lon="4.88778">
        <ele>290</ele>
        <time>2014-09-07T07:29:14.000Z</time>
      </trkpt>
      <trkpt lat="45.89131" lon="4.88798">
        <ele>289.79998779297</ele>
        <time>2014-09-07T07:29:18.000Z</time>
      </trkpt>
      <trkpt lat="45.89134" lon="4.88798">
        <ele>289.79998779297</ele>
        <time>2014-09-07T07:29:19.000Z</time>
      </trkpt>
      <trkpt lat="45.89145" lon="4.88795">
        <ele>290</ele>
        <time>2014-09-07T07:29:22.000Z</time>
      </trkpt>
      <trkpt lat="45.89179" lon="4.88785">
        <ele>290.20001220703</ele>
        <time>2014-09-07T07:29:31.000Z</time>
      </trkpt>
      <trkpt lat="45.89207" lon="4.88776">
        <ele>290.39999389648</ele>
        <time>2014-09-07T07:29:39.000Z</time>
      </trkpt>
      <trkpt lat="45.89234" lon="4.88773">
        <ele>290.79998779297</ele>
        <time>2014-09-07T07:29:47.000Z</time>
      </trkpt>
      <trkpt lat="45.89263" lon="4.88776">
        <ele>291.39999389648</ele>
        <time>2014-09-07T07:29:57.000Z</time>
      </trkpt>
      <trkpt lat="45.89292" lon="4.8878">
        <ele>292</ele>
        <time>2014-09-07T07:30:07.000Z</time>
      </trkpt>
      <trkpt lat="45.89319" lon="4.88785">
        <ele>292.39999389648</ele>
        <time>2014-09-07T07:30:17.000Z</time>
      </trkpt>
      <trkpt lat="45.89347" lon="4.88792">
        <ele>293</ele>
        <time>2014-09-07T07:30:27.000Z</time>
      </trkpt>
      <trkpt lat="45.89374" lon="4.88799">
        <ele>293.60000610352</ele>
        <time>2014-09-07T07:30:36.000Z</time>
      </trkpt>
      <trkpt lat="45.89405" lon="4.88804">
        <ele>294</ele>
        <time>2014-09-07T07:30:46.000Z</time>
      </trkpt>
      <trkpt lat="45.89439" lon="4.88804">
        <ele>294</ele>
        <time>2014-09-07T07:30:57.000Z</time>
      </trkpt>
      <trkpt lat="45.89455" lon="4.88804">
        <ele>294</ele>
        <time>2014-09-07T07:31:02.000Z</time>
      </trkpt>
      <trkpt lat="45.89459" lon="4.88815">
        <ele>294</ele>
        <time>2014-09-07T07:31:06.000Z</time>
      </trkpt>
      <trkpt lat="45.89461" lon="4.88842">
        <ele>294</ele>
        <time>2014-09-07T07:31:14.000Z</time>
      </trkpt>
      <trkpt lat="45.89465" lon="4.8886">
        <ele>294</ele>
        <time>2014-09-07T07:31:20.000Z</time>
      </trkpt>
      <trkpt lat="45.89474" lon="4.88882">
        <ele>294.20001220703</ele>
        <time>2014-09-07T07:31:27.000Z</time>
      </trkpt>
      <trkpt lat="45.89485" lon="4.88907">
        <ele>295.20001220703</ele>
        <time>2014-09-07T07:31:35.000Z</time>
      </trkpt>
      <trkpt lat="45.89494" lon="4.88925">
        <ele>296</ele>
        <time>2014-09-07T07:31:41.000Z</time>
      </trkpt>
      <trkpt lat="45.895" lon="4.88941">
        <ele>296.60000610352</ele>
        <time>2014-09-07T07:31:46.000Z</time>
      </trkpt>
      <trkpt lat="45.89513" lon="4.88965">
        <ele>297.60000610352</ele>
        <time>2014-09-07T07:31:54.000Z</time>
      </trkpt>
      <trkpt lat="45.89523" lon="4.8899">
        <ele>298.20001220703</ele>
        <time>2014-09-07T07:32:01.000Z</time>
      </trkpt>
      <trkpt lat="45.89536" lon="4.89018">
        <ele>299</ele>
        <time>2014-09-07T07:32:09.000Z</time>
      </trkpt>
      <trkpt lat="45.89549" lon="4.89046">
        <ele>299.79998779297</ele>
        <time>2014-09-07T07:32:16.000Z</time>
      </trkpt>
      <trkpt lat="45.8957" lon="4.89092">
        <ele>300</ele>
        <time>2014-09-07T07:32:27.000Z</time>
      </trkpt>
      <trkpt lat="45.8959" lon="4.89133">
        <ele>299.79998779297</ele>
        <time>2014-09-07T07:32:37.000Z</time>
      </trkpt>
      <trkpt lat="45.89609" lon="4.89156">
        <ele>299.60000610352</ele>
        <time>2014-09-07T07:32:44.000Z</time>
      </trkpt>
      <trkpt lat="45.89631" lon="4.89171">
        <ele>299.39999389648</ele>
        <time>2014-09-07T07:32:51.000Z</time>
      </trkpt>
      <trkpt lat="45.89664" lon="4.89188">
        <ele>299</ele>
        <time>2014-09-07T07:33:01.000Z</time>
      </trkpt>
      <trkpt lat="45.89696" lon="4.89204">
        <ele>298.39999389648</ele>
        <time>2014-09-07T07:33:11.000Z</time>
      </trkpt>
      <trkpt lat="45.89728" lon="4.89222">
        <ele>297.79998779297</ele>
        <time>2014-09-07T07:33:21.000Z</time>
      </trkpt>
      <trkpt lat="45.89752" lon="4.89235">
        <ele>298</ele>
        <time>2014-09-07T07:33:29.000Z</time>
      </trkpt>
      <trkpt lat="45.89771" lon="4.89245">
        <ele>297.79998779297</ele>
        <time>2014-09-07T07:33:35.000Z</time>
      </trkpt>
      <trkpt lat="45.89787" lon="4.89253">
        <ele>297.79998779297</ele>
        <time>2014-09-07T07:33:40.000Z</time>
      </trkpt>
      <trkpt lat="45.89815" lon="4.89267">
        <ele>297.79998779297</ele>
        <time>2014-09-07T07:33:49.000Z</time>
      </trkpt>
      <trkpt lat="45.89845" lon="4.89283">
        <ele>298</ele>
        <time>2014-09-07T07:33:59.000Z</time>
      </trkpt>
      <trkpt lat="45.89877" lon="4.89299">
        <ele>298.39999389648</ele>
        <time>2014-09-07T07:34:09.000Z</time>
      </trkpt>
      <trkpt lat="45.899" lon="4.8931">
        <ele>298.20001220703</ele>
        <time>2014-09-07T07:34:16.000Z</time>
      </trkpt>
      <trkpt lat="45.8993" lon="4.89328">
        <ele>297.39999389648</ele>
        <time>2014-09-07T07:34:25.000Z</time>
      </trkpt>
      <trkpt lat="45.89952" lon="4.89343">
        <ele>297</ele>
        <time>2014-09-07T07:34:32.000Z</time>
      </trkpt>
      <trkpt lat="45.89976" lon="4.8936">
        <ele>296.39999389648</ele>
        <time>2014-09-07T07:34:41.000Z</time>
      </trkpt>
      <trkpt lat="45.89996" lon="4.89376">
        <ele>296.60000610352</ele>
        <time>2014-09-07T07:34:48.000Z</time>
      </trkpt>
      <trkpt lat="45.90014" lon="4.89394">
        <ele>296.79998779297</ele>
        <time>2014-09-07T07:34:55.000Z</time>
      </trkpt>
      <trkpt lat="45.90032" lon="4.89418">
        <ele>297.20001220703</ele>
        <time>2014-09-07T07:35:03.000Z</time>
      </trkpt>
      <trkpt lat="45.90048" lon="4.89442">
        <ele>297.60000610352</ele>
        <time>2014-09-07T07:35:11.000Z</time>
      </trkpt>
      <trkpt lat="45.90054" lon="4.8945">
        <ele>297.79998779297</ele>
        <time>2014-09-07T07:35:15.000Z</time>
      </trkpt>
      <trkpt lat="45.90055" lon="4.89459">
        <ele>298.20001220703</ele>
        <time>2014-09-07T07:35:19.000Z</time>
      </trkpt>
      <trkpt lat="45.90049" lon="4.89471">
        <ele>298.60000610352</ele>
        <time>2014-09-07T07:35:26.000Z</time>
      </trkpt>
      <trkpt lat="45.90049" lon="4.89471">
        <ele>298.79998779297</ele>
        <time>2014-09-07T07:35:28.000Z</time>
      </trkpt>
      <trkpt lat="45.90039" lon="4.89487">
        <ele>299.60000610352</ele>
        <time>2014-09-07T07:36:05.000Z</time>
      </trkpt>
      <trkpt lat="45.90024" lon="4.89506">
        <ele>300.79998779297</ele>
        <time>2014-09-07T07:36:13.000Z</time>
      </trkpt>
      <trkpt lat="45.90006" lon="4.89527">
        <ele>301.20001220703</ele>
        <time>2014-09-07T07:36:21.000Z</time>
      </trkpt>
      <trkpt lat="45.8999" lon="4.89543">
        <ele>301.60000610352</ele>
        <time>2014-09-07T07:36:28.000Z</time>
      </trkpt>
      <trkpt lat="45.89978" lon="4.89552">
        <ele>301.79998779297</ele>
        <time>2014-09-07T07:36:34.000Z</time>
      </trkpt>
      <trkpt lat="45.89955" lon="4.89564">
        <ele>301.39999389648</ele>
        <time>2014-09-07T07:36:42.000Z</time>
      </trkpt>
      <trkpt lat="45.89919" lon="4.89578">
        <ele>300.79998779297</ele>
        <time>2014-09-07T07:36:52.000Z</time>
      </trkpt>
      <trkpt lat="45.89874" lon="4.89592">
        <ele>300.20001220703</ele>
        <time>2014-09-07T07:37:03.000Z</time>
      </trkpt>
      <trkpt lat="45.89832" lon="4.89603">
        <ele>299.60000610352</ele>
        <time>2014-09-07T07:37:13.000Z</time>
      </trkpt>
      <trkpt lat="45.89801" lon="4.89614">
        <ele>299.20001220703</ele>
        <time>2014-09-07T07:37:21.000Z</time>
      </trkpt>
      <trkpt lat="45.89772" lon="4.89622">
        <ele>299</ele>
        <time>2014-09-07T07:37:29.000Z</time>
      </trkpt>
      <trkpt lat="45.89744" lon="4.89623">
        <ele>299</ele>
        <time>2014-09-07T07:37:37.000Z</time>
      </trkpt>
      <trkpt lat="45.89715" lon="4.89617">
        <ele>299</ele>
        <time>2014-09-07T07:37:45.000Z</time>
      </trkpt>
      <trkpt lat="45.89683" lon="4.89608">
        <ele>299.39999389648</ele>
        <time>2014-09-07T07:37:54.000Z</time>
      </trkpt>
      <trkpt lat="45.89652" lon="4.89609">
        <ele>299.79998779297</ele>
        <time>2014-09-07T07:38:02.000Z</time>
      </trkpt>
      <trkpt lat="45.89624" lon="4.89622">
        <ele>300</ele>
        <time>2014-09-07T07:38:10.000Z</time>
      </trkpt>
      <trkpt lat="45.89596" lon="4.89641">
        <ele>300</ele>
        <time>2014-09-07T07:38:18.000Z</time>
      </trkpt>
      <trkpt lat="45.89573" lon="4.8966">
        <ele>300.20001220703</ele>
        <time>2014-09-07T07:38:25.000Z</time>
      </trkpt>
      <trkpt lat="45.89545" lon="4.89684">
        <ele>300.79998779297</ele>
        <time>2014-09-07T07:38:33.000Z</time>
      </trkpt>
      <trkpt lat="45.89515" lon="4.89705">
        <ele>300</ele>
        <time>2014-09-07T07:38:41.000Z</time>
      </trkpt>
      <trkpt lat="45.89512" lon="4.89707">
        <ele>300</ele>
        <time>2014-09-07T07:38:42.000Z</time>
      </trkpt>
      <trkpt lat="45.89486" lon="4.89726">
        <ele>300</ele>
        <time>2014-09-07T07:38:49.000Z</time>
      </trkpt>
      <trkpt lat="45.89461" lon="4.89745">
        <ele>301</ele>
        <time>2014-09-07T07:38:56.000Z</time>
      </trkpt>
      <trkpt lat="45.89442" lon="4.89764">
        <ele>301.39999389648</ele>
        <time>2014-09-07T07:39:02.000Z</time>
      </trkpt>
      <trkpt lat="45.89417" lon="4.89788">
        <ele>300.60000610352</ele>
        <time>2014-09-07T07:39:09.000Z</time>
      </trkpt>
      <trkpt lat="45.89397" lon="4.89813">
        <ele>299.60000610352</ele>
        <time>2014-09-07T07:39:15.000Z</time>
      </trkpt>
      <trkpt lat="45.89367" lon="4.89847">
        <ele>300</ele>
        <time>2014-09-07T07:39:24.000Z</time>
      </trkpt>
      <trkpt lat="45.89344" lon="4.89874">
        <ele>297.79998779297</ele>
        <time>2014-09-07T07:39:31.000Z</time>
      </trkpt>
      <trkpt lat="45.89326" lon="4.89906">
        <ele>296</ele>
        <time>2014-09-07T07:39:38.000Z</time>
      </trkpt>
      <trkpt lat="45.89323" lon="4.89911">
        <ele>296</ele>
        <time>2014-09-07T07:39:39.000Z</time>
      </trkpt>
      <trkpt lat="45.89309" lon="4.89955">
        <ele>295</ele>
        <time>2014-09-07T07:39:47.000Z</time>
      </trkpt>
      <trkpt lat="45.89305" lon="4.89965">
        <ele>295</ele>
        <time>2014-09-07T07:39:49.000Z</time>
      </trkpt>
      <trkpt lat="45.89291" lon="4.89986">
        <ele>294.60000610352</ele>
        <time>2014-09-07T07:39:54.000Z</time>
      </trkpt>
      <trkpt lat="45.89259" lon="4.90011">
        <ele>293.79998779297</ele>
        <time>2014-09-07T07:40:03.000Z</time>
      </trkpt>
      <trkpt lat="45.89234" lon="4.90031">
        <ele>293.20001220703</ele>
        <time>2014-09-07T07:40:10.000Z</time>
      </trkpt>
      <trkpt lat="45.8922" lon="4.90043">
        <ele>293</ele>
        <time>2014-09-07T07:40:14.000Z</time>
      </trkpt>
      <trkpt lat="45.89209" lon="4.90051">
        <ele>293.20001220703</ele>
        <time>2014-09-07T07:40:17.000Z</time>
      </trkpt>
      <trkpt lat="45.89175" lon="4.90081">
        <ele>293.39999389648</ele>
        <time>2014-09-07T07:40:27.000Z</time>
      </trkpt>
      <trkpt lat="45.89144" lon="4.90109">
        <ele>293</ele>
        <time>2014-09-07T07:40:36.000Z</time>
      </trkpt>
      <trkpt lat="45.8911" lon="4.90137">
        <ele>292.60000610352</ele>
        <time>2014-09-07T07:40:46.000Z</time>
      </trkpt>
      <trkpt lat="45.8908" lon="4.90157">
        <ele>292.39999389648</ele>
        <time>2014-09-07T07:40:54.000Z</time>
      </trkpt>
      <trkpt lat="45.89055" lon="4.90168">
        <ele>292</ele>
        <time>2014-09-07T07:41:01.000Z</time>
      </trkpt>
      <trkpt lat="45.89049" lon="4.90172">
        <ele>292.20001220703</ele>
        <time>2014-09-07T07:41:03.000Z</time>
      </trkpt>
      <trkpt lat="45.89051" lon="4.90189">
        <ele>292.60000610352</ele>
        <time>2014-09-07T07:41:08.000Z</time>
      </trkpt>
      <trkpt lat="45.89053" lon="4.90192">
        <ele>292.60000610352</ele>
        <time>2014-09-07T07:41:09.000Z</time>
      </trkpt>
      <trkpt lat="45.89071" lon="4.90223">
        <ele>293.39999389648</ele>
        <time>2014-09-07T07:41:18.000Z</time>
      </trkpt>
      <trkpt lat="45.89089" lon="4.90249">
        <ele>293.79998779297</ele>
        <time>2014-09-07T07:41:26.000Z</time>
      </trkpt>
      <trkpt lat="45.89113" lon="4.90276">
        <ele>294.39999389648</ele>
        <time>2014-09-07T07:41:36.000Z</time>
      </trkpt>
      <trkpt lat="45.89123" lon="4.903">
        <ele>294.79998779297</ele>
        <time>2014-09-07T07:41:43.000Z</time>
      </trkpt>
      <trkpt lat="45.89129" lon="4.9034">
        <ele>295.39999389648</ele>
        <time>2014-09-07T07:41:53.000Z</time>
      </trkpt>
      <trkpt lat="45.89136" lon="4.90378">
        <ele>296</ele>
        <time>2014-09-07T07:42:03.000Z</time>
      </trkpt>
      <trkpt lat="45.89141" lon="4.90408">
        <ele>296.39999389648</ele>
        <time>2014-09-07T07:42:11.000Z</time>
      </trkpt>
      <trkpt lat="45.89146" lon="4.90438">
        <ele>296.60000610352</ele>
        <time>2014-09-07T07:42:19.000Z</time>
      </trkpt>
      <trkpt lat="45.89158" lon="4.90465">
        <ele>296.60000610352</ele>
        <time>2014-09-07T07:42:27.000Z</time>
      </trkpt>
      <trkpt lat="45.89166" lon="4.90488">
        <ele>296.39999389648</ele>
        <time>2014-09-07T07:42:34.000Z</time>
      </trkpt>
      <trkpt lat="45.89175" lon="4.90518">
        <ele>296.20001220703</ele>
        <time>2014-09-07T07:42:42.000Z</time>
      </trkpt>
      <trkpt lat="45.89184" lon="4.9055">
        <ele>296</ele>
        <time>2014-09-07T07:42:50.000Z</time>
      </trkpt>
      <trkpt lat="45.89194" lon="4.90583">
        <ele>295.79998779297</ele>
        <time>2014-09-07T07:42:58.000Z</time>
      </trkpt>
      <trkpt lat="45.89209" lon="4.90621">
        <ele>295.39999389648</ele>
        <time>2014-09-07T07:43:07.000Z</time>
      </trkpt>
      <trkpt lat="45.89224" lon="4.90658">
        <ele>295.79998779297</ele>
        <time>2014-09-07T07:43:16.000Z</time>
      </trkpt>
      <trkpt lat="45.89236" lon="4.90685">
        <ele>296.39999389648</ele>
        <time>2014-09-07T07:43:23.000Z</time>
      </trkpt>
      <trkpt lat="45.89253" lon="4.90706">
        <ele>297</ele>
        <time>2014-09-07T07:43:30.000Z</time>
      </trkpt>
      <trkpt lat="45.89278" lon="4.90723">
        <ele>296.79998779297</ele>
        <time>2014-09-07T07:43:38.000Z</time>
      </trkpt>
      <trkpt lat="45.89301" lon="4.90739">
        <ele>296.60000610352</ele>
        <time>2014-09-07T07:43:45.000Z</time>
      </trkpt>
      <trkpt lat="45.89329" lon="4.90758">
        <ele>296.20001220703</ele>
        <time>2014-09-07T07:43:53.000Z</time>
      </trkpt>
      <trkpt lat="45.89347" lon="4.90775">
        <ele>295.79998779297</ele>
        <time>2014-09-07T07:43:59.000Z</time>
      </trkpt>
      <trkpt lat="45.89353" lon="4.908">
        <ele>295.39999389648</ele>
        <time>2014-09-07T07:44:04.000Z</time>
      </trkpt>
      <trkpt lat="45.89357" lon="4.90832">
        <ele>295.39999389648</ele>
        <time>2014-09-07T07:44:10.000Z</time>
      </trkpt>
      <trkpt lat="45.89362" lon="4.90879">
        <ele>295.20001220703</ele>
        <time>2014-09-07T07:44:19.000Z</time>
      </trkpt>
      <trkpt lat="45.89367" lon="4.9092">
        <ele>296.60000610352</ele>
        <time>2014-09-07T07:44:27.000Z</time>
      </trkpt>
      <trkpt lat="45.89375" lon="4.90966">
        <ele>297.60000610352</ele>
        <time>2014-09-07T07:44:36.000Z</time>
      </trkpt>
      <trkpt lat="45.89384" lon="4.91004">
        <ele>297.79998779297</ele>
        <time>2014-09-07T07:44:44.000Z</time>
      </trkpt>
      <trkpt lat="45.89378" lon="4.91016">
        <ele>297.79998779297</ele>
        <time>2014-09-07T07:44:48.000Z</time>
      </trkpt>
      <trkpt lat="45.89373" lon="4.91019">
        <ele>297.60000610352</ele>
        <time>2014-09-07T07:44:50.000Z</time>
      </trkpt>
      <trkpt lat="45.89354" lon="4.91026">
        <ele>296.79998779297</ele>
        <time>2014-09-07T07:44:57.000Z</time>
      </trkpt>
      <trkpt lat="45.89341" lon="4.91042">
        <ele>296.20001220703</ele>
        <time>2014-09-07T07:45:03.000Z</time>
      </trkpt>
      <trkpt lat="45.89343" lon="4.91062">
        <ele>295.20001220703</ele>
        <time>2014-09-07T07:45:07.000Z</time>
      </trkpt>
      <trkpt lat="45.89351" lon="4.91102">
        <ele>294.60000610352</ele>
        <time>2014-09-07T07:45:14.000Z</time>
      </trkpt>
      <trkpt lat="45.89352" lon="4.91108">
        <ele>294.79998779297</ele>
        <time>2014-09-07T07:45:15.000Z</time>
      </trkpt>
      <trkpt lat="45.8935" lon="4.91137">
        <ele>294.39999389648</ele>
        <time>2014-09-07T07:45:20.000Z</time>
      </trkpt>
      <trkpt lat="45.89339" lon="4.91142">
        <ele>294.60000610352</ele>
        <time>2014-09-07T07:45:23.000Z</time>
      </trkpt>
      <trkpt lat="45.89301" lon="4.91148">
        <ele>295.39999389648</ele>
        <time>2014-09-07T07:45:33.000Z</time>
      </trkpt>
      <trkpt lat="45.8927" lon="4.91152">
        <ele>295.79998779297</ele>
        <time>2014-09-07T07:45:42.000Z</time>
      </trkpt>
      <trkpt lat="45.89248" lon="4.91157">
        <ele>296.20001220703</ele>
        <time>2014-09-07T07:45:49.000Z</time>
      </trkpt>
      <trkpt lat="45.89237" lon="4.91164">
        <ele>296.60000610352</ele>
        <time>2014-09-07T07:45:53.000Z</time>
      </trkpt>
      <trkpt lat="45.89237" lon="4.91186">
        <ele>296.60000610352</ele>
        <time>2014-09-07T07:45:58.000Z</time>
      </trkpt>
      <trkpt lat="45.8925" lon="4.91235">
        <ele>294.60000610352</ele>
        <time>2014-09-07T07:46:05.000Z</time>
      </trkpt>
      <trkpt lat="45.89265" lon="4.91294">
        <ele>291</ele>
        <time>2014-09-07T07:46:13.000Z</time>
      </trkpt>
      <trkpt lat="45.89278" lon="4.9135">
        <ele>290.60000610352</ele>
        <time>2014-09-07T07:46:21.000Z</time>
      </trkpt>
      <trkpt lat="45.89291" lon="4.91401">
        <ele>290.20001220703</ele>
        <time>2014-09-07T07:46:29.000Z</time>
      </trkpt>
      <trkpt lat="45.89304" lon="4.91446">
        <ele>290</ele>
        <time>2014-09-07T07:46:36.000Z</time>
      </trkpt>
      <trkpt lat="45.8931" lon="4.91469">
        <ele>289.60000610352</ele>
        <time>2014-09-07T07:46:40.000Z</time>
      </trkpt>
      <trkpt lat="45.89324" lon="4.91515">
        <ele>288.39999389648</ele>
        <time>2014-09-07T07:46:49.000Z</time>
      </trkpt>
      <trkpt lat="45.89339" lon="4.91548">
        <ele>287.79998779297</ele>
        <time>2014-09-07T07:46:56.000Z</time>
      </trkpt>
      <trkpt lat="45.89361" lon="4.91571">
        <ele>288</ele>
        <time>2014-09-07T07:47:03.000Z</time>
      </trkpt>
      <trkpt lat="45.8938" lon="4.91584">
        <ele>288.20001220703</ele>
        <time>2014-09-07T07:47:09.000Z</time>
      </trkpt>
      <trkpt lat="45.89398" lon="4.91597">
        <ele>288.60000610352</ele>
        <time>2014-09-07T07:47:15.000Z</time>
      </trkpt>
      <trkpt lat="45.89422" lon="4.91613">
        <ele>289.79998779297</ele>
        <time>2014-09-07T07:47:23.000Z</time>
      </trkpt>
      <trkpt lat="45.89439" lon="4.91626">
        <ele>291</ele>
        <time>2014-09-07T07:47:29.000Z</time>
      </trkpt>
      <trkpt lat="45.89458" lon="4.91635">
        <ele>292.20001220703</ele>
        <time>2014-09-07T07:47:35.000Z</time>
      </trkpt>
      <trkpt lat="45.89477" lon="4.91637">
        <ele>293</ele>
        <time>2014-09-07T07:47:41.000Z</time>
      </trkpt>
      <trkpt lat="45.89502" lon="4.91628">
        <ele>293</ele>
        <time>2014-09-07T07:47:49.000Z</time>
      </trkpt>
      <trkpt lat="45.89529" lon="4.91618">
        <ele>293.20001220703</ele>
        <time>2014-09-07T07:47:57.000Z</time>
      </trkpt>
      <trkpt lat="45.89552" lon="4.9161">
        <ele>293.39999389648</ele>
        <time>2014-09-07T07:48:04.000Z</time>
      </trkpt>
      <trkpt lat="45.8958" lon="4.91602">
        <ele>294.79998779297</ele>
        <time>2014-09-07T07:48:13.000Z</time>
      </trkpt>
      <trkpt lat="45.89604" lon="4.91596">
        <ele>296.39999389648</ele>
        <time>2014-09-07T07:48:21.000Z</time>
      </trkpt>
      <trkpt lat="45.89629" lon="4.9159">
        <ele>298</ele>
        <time>2014-09-07T07:48:30.000Z</time>
      </trkpt>
      <trkpt lat="45.89649" lon="4.91587">
        <ele>298.39999389648</ele>
        <time>2014-09-07T07:48:38.000Z</time>
      </trkpt>
      <trkpt lat="45.89667" lon="4.91586">
        <ele>298</ele>
        <time>2014-09-07T07:48:45.000Z</time>
      </trkpt>
      <trkpt lat="45.89694" lon="4.91581">
        <ele>297.60000610352</ele>
        <time>2014-09-07T07:48:55.000Z</time>
      </trkpt>
      <trkpt lat="45.8972" lon="4.91575">
        <ele>298</ele>
        <time>2014-09-07T07:49:05.000Z</time>
      </trkpt>
      <trkpt lat="45.89725" lon="4.91577">
        <ele>298</ele>
        <time>2014-09-07T07:49:07.000Z</time>
      </trkpt>
      <trkpt lat="45.89732" lon="4.91593">
        <ele>298</ele>
        <time>2014-09-07T07:49:12.000Z</time>
      </trkpt>
      <trkpt lat="45.89735" lon="4.9163">
        <ele>298.20001220703</ele>
        <time>2014-09-07T07:49:20.000Z</time>
      </trkpt>
      <trkpt lat="45.89737" lon="4.91654">
        <ele>298.79998779297</ele>
        <time>2014-09-07T07:49:25.000Z</time>
      </trkpt>
      <trkpt lat="45.89742" lon="4.91683">
        <ele>299.39999389648</ele>
        <time>2014-09-07T07:49:31.000Z</time>
      </trkpt>
      <trkpt lat="45.89749" lon="4.91716">
        <ele>299.79998779297</ele>
        <time>2014-09-07T07:49:38.000Z</time>
      </trkpt>
      <trkpt lat="45.8975" lon="4.91719">
        <ele>299.79998779297</ele>
        <time>2014-09-07T07:49:39.000Z</time>
      </trkpt>
      <trkpt lat="45.89751" lon="4.91721">
        <ele>299.79998779297</ele>
        <time>2014-09-07T07:49:42.000Z</time>
      </trkpt>
      <trkpt lat="45.89774" lon="4.91721">
        <ele>299.79998779297</ele>
        <time>2014-09-07T07:52:35.000Z</time>
      </trkpt>
      <trkpt lat="45.89799" lon="4.91713">
        <ele>300</ele>
        <time>2014-09-07T07:52:43.000Z</time>
      </trkpt>
      <trkpt lat="45.89832" lon="4.91703">
        <ele>299.60000610352</ele>
        <time>2014-09-07T07:52:52.000Z</time>
      </trkpt>
      <trkpt lat="45.89859" lon="4.91694">
        <ele>299</ele>
        <time>2014-09-07T07:52:59.000Z</time>
      </trkpt>
      <trkpt lat="45.89892" lon="4.91684">
        <ele>298.20001220703</ele>
        <time>2014-09-07T07:53:07.000Z</time>
      </trkpt>
      <trkpt lat="45.89925" lon="4.91673">
        <ele>297.79998779297</ele>
        <time>2014-09-07T07:53:15.000Z</time>
      </trkpt>
      <trkpt lat="45.89955" lon="4.91662">
        <ele>297.39999389648</ele>
        <time>2014-09-07T07:53:23.000Z</time>
      </trkpt>
      <trkpt lat="45.89991" lon="4.91651">
        <ele>296.79998779297</ele>
        <time>2014-09-07T07:53:32.000Z</time>
      </trkpt>
      <trkpt lat="45.90016" lon="4.91643">
        <ele>297</ele>
        <time>2014-09-07T07:53:39.000Z</time>
      </trkpt>
      <trkpt lat="45.90047" lon="4.91634">
        <ele>297.79998779297</ele>
        <time>2014-09-07T07:53:47.000Z</time>
      </trkpt>
      <trkpt lat="45.90072" lon="4.91624">
        <ele>298.39999389648</ele>
        <time>2014-09-07T07:53:54.000Z</time>
      </trkpt>
      <trkpt lat="45.90096" lon="4.91615">
        <ele>298.79998779297</ele>
        <time>2014-09-07T07:54:01.000Z</time>
      </trkpt>
      <trkpt lat="45.90121" lon="4.91605">
        <ele>299.39999389648</ele>
        <time>2014-09-07T07:54:08.000Z</time>
      </trkpt>
      <trkpt lat="45.90145" lon="4.91594">
        <ele>299.60000610352</ele>
        <time>2014-09-07T07:54:15.000Z</time>
      </trkpt>
      <trkpt lat="45.90166" lon="4.91584">
        <ele>299</ele>
        <time>2014-09-07T07:54:21.000Z</time>
      </trkpt>
      <trkpt lat="45.9019" lon="4.91573">
        <ele>298.60000610352</ele>
        <time>2014-09-07T07:54:28.000Z</time>
      </trkpt>
      <trkpt lat="45.9021" lon="4.91563">
        <ele>298.79998779297</ele>
        <time>2014-09-07T07:54:34.000Z</time>
      </trkpt>
      <trkpt lat="45.90233" lon="4.9155">
        <ele>298.79998779297</ele>
        <time>2014-09-07T07:54:41.000Z</time>
      </trkpt>
      <trkpt lat="45.90266" lon="4.91532">
        <ele>298.60000610352</ele>
        <time>2014-09-07T07:54:50.000Z</time>
      </trkpt>
      <trkpt lat="45.90297" lon="4.91517">
        <ele>298.79998779297</ele>
        <time>2014-09-07T07:54:59.000Z</time>
      </trkpt>
      <trkpt lat="45.9032" lon="4.91517">
        <ele>298.60000610352</ele>
        <time>2014-09-07T07:55:05.000Z</time>
      </trkpt>
      <trkpt lat="45.90341" lon="4.91507">
        <ele>298.79998779297</ele>
        <time>2014-09-07T07:55:11.000Z</time>
      </trkpt>
      <trkpt lat="45.90352" lon="4.91486">
        <ele>299.39999389648</ele>
        <time>2014-09-07T07:55:16.000Z</time>
      </trkpt>
      <trkpt lat="45.90362" lon="4.91453">
        <ele>300.60000610352</ele>
        <time>2014-09-07T07:55:23.000Z</time>
      </trkpt>
      <trkpt lat="45.90375" lon="4.91437">
        <ele>301.39999389648</ele>
        <time>2014-09-07T07:55:28.000Z</time>
      </trkpt>
      <trkpt lat="45.904" lon="4.91408">
        <ele>302.39999389648</ele>
        <time>2014-09-07T07:55:37.000Z</time>
      </trkpt>
      <trkpt lat="45.90418" lon="4.91379">
        <ele>302.60000610352</ele>
        <time>2014-09-07T07:55:45.000Z</time>
      </trkpt>
      <trkpt lat="45.90433" lon="4.91347">
        <ele>301.39999389648</ele>
        <time>2014-09-07T07:55:53.000Z</time>
      </trkpt>
      <trkpt lat="45.90445" lon="4.9132">
        <ele>301</ele>
        <time>2014-09-07T07:56:00.000Z</time>
      </trkpt>
      <trkpt lat="45.9046" lon="4.91294">
        <ele>300.79998779297</ele>
        <time>2014-09-07T07:56:07.000Z</time>
      </trkpt>
      <trkpt lat="45.90474" lon="4.9128">
        <ele>300.39999389648</ele>
        <time>2014-09-07T07:56:12.000Z</time>
      </trkpt>
      <trkpt lat="45.90492" lon="4.91274">
        <ele>300.79998779297</ele>
        <time>2014-09-07T07:56:17.000Z</time>
      </trkpt>
      <trkpt lat="45.90516" lon="4.91279">
        <ele>300.60000610352</ele>
        <time>2014-09-07T07:56:24.000Z</time>
      </trkpt>
      <trkpt lat="45.90543" lon="4.91284">
        <ele>300.39999389648</ele>
        <time>2014-09-07T07:56:32.000Z</time>
      </trkpt>
      <trkpt lat="45.90573" lon="4.91288">
        <ele>300</ele>
        <time>2014-09-07T07:56:41.000Z</time>
      </trkpt>
      <trkpt lat="45.90601" lon="4.91293">
        <ele>299.79998779297</ele>
        <time>2014-09-07T07:56:50.000Z</time>
      </trkpt>
      <trkpt lat="45.9062" lon="4.91296">
        <ele>299.79998779297</ele>
        <time>2014-09-07T07:56:56.000Z</time>
      </trkpt>
      <trkpt lat="45.90638" lon="4.913">
        <ele>299.60000610352</ele>
        <time>2014-09-07T07:57:02.000Z</time>
      </trkpt>
      <trkpt lat="45.90647" lon="4.91283">
        <ele>300.20001220703</ele>
        <time>2014-09-07T07:57:07.000Z</time>
      </trkpt>
      <trkpt lat="45.90647" lon="4.91272">
        <ele>300.39999389648</ele>
        <time>2014-09-07T07:57:10.000Z</time>
      </trkpt>
      <trkpt lat="45.90648" lon="4.91239">
        <ele>301.60000610352</ele>
        <time>2014-09-07T07:57:18.000Z</time>
      </trkpt>
      <trkpt lat="45.90648" lon="4.91213">
        <ele>302.60000610352</ele>
        <time>2014-09-07T07:57:24.000Z</time>
      </trkpt>
      <trkpt lat="45.90654" lon="4.91195">
        <ele>303.20001220703</ele>
        <time>2014-09-07T07:57:28.000Z</time>
      </trkpt>
      <trkpt lat="45.90657" lon="4.91192">
        <ele>303.20001220703</ele>
        <time>2014-09-07T07:57:29.000Z</time>
      </trkpt>
      <trkpt lat="45.90678" lon="4.91192">
        <ele>303</ele>
        <time>2014-09-07T07:57:35.000Z</time>
      </trkpt>
      <trkpt lat="45.90697" lon="4.91195">
        <ele>302.60000610352</ele>
        <time>2014-09-07T07:57:40.000Z</time>
      </trkpt>
      <trkpt lat="45.90717" lon="4.912">
        <ele>302.20001220703</ele>
        <time>2014-09-07T07:57:45.000Z</time>
      </trkpt>
      <trkpt lat="45.90736" lon="4.91203">
        <ele>302.39999389648</ele>
        <time>2014-09-07T07:57:50.000Z</time>
      </trkpt>
      <trkpt lat="45.90755" lon="4.91208">
        <ele>302.39999389648</ele>
        <time>2014-09-07T07:57:55.000Z</time>
      </trkpt>
      <trkpt lat="45.90763" lon="4.91207">
        <ele>302.39999389648</ele>
        <time>2014-09-07T07:57:57.000Z</time>
      </trkpt>
      <trkpt lat="45.90774" lon="4.91185">
        <ele>303.39999389648</ele>
        <time>2014-09-07T07:58:03.000Z</time>
      </trkpt>
      <trkpt lat="45.90787" lon="4.91155">
        <ele>304.20001220703</ele>
        <time>2014-09-07T07:58:10.000Z</time>
      </trkpt>
      <trkpt lat="45.90794" lon="4.91122">
        <ele>305</ele>
        <time>2014-09-07T07:58:17.000Z</time>
      </trkpt>
      <trkpt lat="45.90794" lon="4.91087">
        <ele>305.39999389648</ele>
        <time>2014-09-07T07:58:24.000Z</time>
      </trkpt>
      <trkpt lat="45.90792" lon="4.91059">
        <ele>306</ele>
        <time>2014-09-07T07:58:30.000Z</time>
      </trkpt>
      <trkpt lat="45.90794" lon="4.9105">
        <ele>306.39999389648</ele>
        <time>2014-09-07T07:58:32.000Z</time>
      </trkpt>
      <trkpt lat="45.90805" lon="4.9104">
        <ele>307</ele>
        <time>2014-09-07T07:58:36.000Z</time>
      </trkpt>
      <trkpt lat="45.90825" lon="4.91018">
        <ele>307</ele>
        <time>2014-09-07T07:58:43.000Z</time>
      </trkpt>
      <trkpt lat="45.90836" lon="4.91006">
        <ele>306.79998779297</ele>
        <time>2014-09-07T07:58:47.000Z</time>
      </trkpt>
      <trkpt lat="45.90847" lon="4.90997">
        <ele>307</ele>
        <time>2014-09-07T07:58:51.000Z</time>
      </trkpt>
      <trkpt lat="45.90859" lon="4.90989">
        <ele>307.20001220703</ele>
        <time>2014-09-07T07:58:56.000Z</time>
      </trkpt>
      <trkpt lat="45.90876" lon="4.90973">
        <ele>307.60000610352</ele>
        <time>2014-09-07T07:59:02.000Z</time>
      </trkpt>
      <trkpt lat="45.90892" lon="4.90954">
        <ele>307.79998779297</ele>
        <time>2014-09-07T07:59:08.000Z</time>
      </trkpt>
      <trkpt lat="45.90904" lon="4.90941">
        <ele>307.39999389648</ele>
        <time>2014-09-07T07:59:13.000Z</time>
      </trkpt>
      <trkpt lat="45.90919" lon="4.90926">
        <ele>306.79998779297</ele>
        <time>2014-09-07T07:59:18.000Z</time>
      </trkpt>
      <trkpt lat="45.9094" lon="4.90908">
        <ele>306.39999389648</ele>
        <time>2014-09-07T07:59:26.000Z</time>
      </trkpt>
      <trkpt lat="45.90942" lon="4.90907">
        <ele>306.39999389648</ele>
        <time>2014-09-07T07:59:27.000Z</time>
      </trkpt>
      <trkpt lat="45.90958" lon="4.90885">
        <ele>306</ele>
        <time>2014-09-07T07:59:35.000Z</time>
      </trkpt>
      <trkpt lat="45.90972" lon="4.90863">
        <ele>305.39999389648</ele>
        <time>2014-09-07T07:59:42.000Z</time>
      </trkpt>
      <trkpt lat="45.90986" lon="4.90841">
        <ele>303.79998779297</ele>
        <time>2014-09-07T07:59:49.000Z</time>
      </trkpt>
      <trkpt lat="45.91" lon="4.90821">
        <ele>302.20001220703</ele>
        <time>2014-09-07T07:59:56.000Z</time>
      </trkpt>
      <trkpt lat="45.91015" lon="4.90801">
        <ele>300.60000610352</ele>
        <time>2014-09-07T08:00:03.000Z</time>
      </trkpt>
      <trkpt lat="45.91021" lon="4.90783">
        <ele>299.79998779297</ele>
        <time>2014-09-07T08:00:08.000Z</time>
      </trkpt>
      <trkpt lat="45.91016" lon="4.90767">
        <ele>299.79998779297</ele>
        <time>2014-09-07T08:00:12.000Z</time>
      </trkpt>
      <trkpt lat="45.91002" lon="4.90743">
        <ele>299.79998779297</ele>
        <time>2014-09-07T08:00:20.000Z</time>
      </trkpt>
      <trkpt lat="45.90987" lon="4.90718">
        <ele>299.79998779297</ele>
        <time>2014-09-07T08:00:27.000Z</time>
      </trkpt>
      <trkpt lat="45.90974" lon="4.90686">
        <ele>298.79998779297</ele>
        <time>2014-09-07T08:00:34.000Z</time>
      </trkpt>
      <trkpt lat="45.90964" lon="4.90662">
        <ele>297.79998779297</ele>
        <time>2014-09-07T08:00:39.000Z</time>
      </trkpt>
      <trkpt lat="45.90949" lon="4.9063">
        <ele>297</ele>
        <time>2014-09-07T08:00:45.000Z</time>
      </trkpt>
      <trkpt lat="45.90946" lon="4.90625">
        <ele>296.79998779297</ele>
        <time>2014-09-07T08:00:46.000Z</time>
      </trkpt>
      <trkpt lat="45.90948" lon="4.90607">
        <ele>295.60000610352</ele>
        <time>2014-09-07T08:00:50.000Z</time>
      </trkpt>
      <trkpt lat="45.90955" lon="4.90604">
        <ele>295</ele>
        <time>2014-09-07T08:00:52.000Z</time>
      </trkpt>
      <trkpt lat="45.90988" lon="4.90601">
        <ele>294.39999389648</ele>
        <time>2014-09-07T08:01:01.000Z</time>
      </trkpt>
      <trkpt lat="45.91029" lon="4.90597">
        <ele>294.39999389648</ele>
        <time>2014-09-07T08:01:11.000Z</time>
      </trkpt>
      <trkpt lat="45.9106" lon="4.90594">
        <ele>294.79998779297</ele>
        <time>2014-09-07T08:01:19.000Z</time>
      </trkpt>
      <trkpt lat="45.9109" lon="4.90589">
        <ele>295.79998779297</ele>
        <time>2014-09-07T08:01:27.000Z</time>
      </trkpt>
      <trkpt lat="45.91112" lon="4.90588">
        <ele>296.60000610352</ele>
        <time>2014-09-07T08:01:33.000Z</time>
      </trkpt>
      <trkpt lat="45.9114" lon="4.90585">
        <ele>297.60000610352</ele>
        <time>2014-09-07T08:01:42.000Z</time>
      </trkpt>
      <trkpt lat="45.91159" lon="4.90583">
        <ele>297.60000610352</ele>
        <time>2014-09-07T08:01:48.000Z</time>
      </trkpt>
      <trkpt lat="45.91179" lon="4.90578">
        <ele>297.39999389648</ele>
        <time>2014-09-07T08:01:54.000Z</time>
      </trkpt>
      <trkpt lat="45.91209" lon="4.90573">
        <ele>298.20001220703</ele>
        <time>2014-09-07T08:02:03.000Z</time>
      </trkpt>
      <trkpt lat="45.91244" lon="4.90568">
        <ele>298.79998779297</ele>
        <time>2014-09-07T08:02:13.000Z</time>
      </trkpt>
      <trkpt lat="45.91274" lon="4.90565">
        <ele>299.39999389648</ele>
        <time>2014-09-07T08:02:22.000Z</time>
      </trkpt>
      <trkpt lat="45.91302" lon="4.90563">
        <ele>299.60000610352</ele>
        <time>2014-09-07T08:02:31.000Z</time>
      </trkpt>
      <trkpt lat="45.91304" lon="4.90563">
        <ele>299.60000610352</ele>
        <time>2014-09-07T08:02:32.000Z</time>
      </trkpt>
      <trkpt lat="45.9131" lon="4.90548">
        <ele>300</ele>
        <time>2014-09-07T08:02:37.000Z</time>
      </trkpt>
      <trkpt lat="45.91309" lon="4.90545">
        <ele>300</ele>
        <time>2014-09-07T08:02:38.000Z</time>
      </trkpt>
      <trkpt lat="45.91298" lon="4.90521">
        <ele>299.39999389648</ele>
        <time>2014-09-07T08:02:44.000Z</time>
      </trkpt>
      <trkpt lat="45.91289" lon="4.90498">
        <ele>298.79998779297</ele>
        <time>2014-09-07T08:02:49.000Z</time>
      </trkpt>
      <trkpt lat="45.91288" lon="4.90495">
        <ele>298.79998779297</ele>
        <time>2014-09-07T08:02:50.000Z</time>
      </trkpt>
      <trkpt lat="45.91296" lon="4.90485">
        <ele>299</ele>
        <time>2014-09-07T08:02:54.000Z</time>
      </trkpt>
      <trkpt lat="45.91304" lon="4.90486">
        <ele>299.20001220703</ele>
        <time>2014-09-07T08:02:57.000Z</time>
      </trkpt>
      <trkpt lat="45.91331" lon="4.90494">
        <ele>301</ele>
        <time>2014-09-07T08:03:05.000Z</time>
      </trkpt>
      <trkpt lat="45.91357" lon="4.90502">
        <ele>302.79998779297</ele>
        <time>2014-09-07T08:03:12.000Z</time>
      </trkpt>
      <trkpt lat="45.91382" lon="4.9051">
        <ele>304.79998779297</ele>
        <time>2014-09-07T08:03:19.000Z</time>
      </trkpt>
      <trkpt lat="45.91406" lon="4.90518">
        <ele>305.60000610352</ele>
        <time>2014-09-07T08:03:26.000Z</time>
      </trkpt>
      <trkpt lat="45.91422" lon="4.90524">
        <ele>305.39999389648</ele>
        <time>2014-09-07T08:03:31.000Z</time>
      </trkpt>
      <trkpt lat="45.91436" lon="4.90528">
        <ele>305.20001220703</ele>
        <time>2014-09-07T08:03:35.000Z</time>
      </trkpt>
      <trkpt lat="45.91462" lon="4.90536">
        <ele>305.20001220703</ele>
        <time>2014-09-07T08:03:43.000Z</time>
      </trkpt>
      <trkpt lat="45.91484" lon="4.90543">
        <ele>303.79998779297</ele>
        <time>2014-09-07T08:03:49.000Z</time>
      </trkpt>
      <trkpt lat="45.91507" lon="4.90547">
        <ele>301.39999389648</ele>
        <time>2014-09-07T08:03:54.000Z</time>
      </trkpt>
      <trkpt lat="45.91535" lon="4.90555">
        <ele>298.20001220703</ele>
        <time>2014-09-07T08:03:59.000Z</time>
      </trkpt>
      <trkpt lat="45.91546" lon="4.9056">
        <ele>297</ele>
        <time>2014-09-07T08:04:01.000Z</time>
      </trkpt>
      <trkpt lat="45.91563" lon="4.90565">
        <ele>295.60000610352</ele>
        <time>2014-09-07T08:04:04.000Z</time>
      </trkpt>
      <trkpt lat="45.916" lon="4.90579">
        <ele>294.79998779297</ele>
        <time>2014-09-07T08:04:11.000Z</time>
      </trkpt>
      <trkpt lat="45.9162" lon="4.90588">
        <ele>294.20001220703</ele>
        <time>2014-09-07T08:04:15.000Z</time>
      </trkpt>
      <trkpt lat="45.91653" lon="4.90598">
        <ele>293</ele>
        <time>2014-09-07T08:04:23.000Z</time>
      </trkpt>
      <trkpt lat="45.91665" lon="4.90601">
        <ele>292.79998779297</ele>
        <time>2014-09-07T08:04:27.000Z</time>
      </trkpt>
      <trkpt lat="45.91668" lon="4.90603">
        <ele>292.79998779297</ele>
        <time>2014-09-07T08:04:32.000Z</time>
      </trkpt>
      <trkpt lat="45.91665" lon="4.90607">
        <ele>293</ele>
        <time>2014-09-07T08:06:50.000Z</time>
      </trkpt>
      <trkpt lat="45.91671" lon="4.90608">
        <ele>293</ele>
        <time>2014-09-07T08:07:00.000Z</time>
      </trkpt>
      <trkpt lat="45.91674" lon="4.90578">
        <ele>292</ele>
        <time>2014-09-07T08:10:19.000Z</time>
      </trkpt>
      <trkpt lat="45.91677" lon="4.90543">
        <ele>291.20001220703</ele>
        <time>2014-09-07T08:10:26.000Z</time>
      </trkpt>
      <trkpt lat="45.91677" lon="4.90507">
        <ele>291.20001220703</ele>
        <time>2014-09-07T08:10:33.000Z</time>
      </trkpt>
      <trkpt lat="45.91668" lon="4.90478">
        <ele>291.20001220703</ele>
        <time>2014-09-07T08:10:39.000Z</time>
      </trkpt>
      <trkpt lat="45.91657" lon="4.90446">
        <ele>291.39999389648</ele>
        <time>2014-09-07T08:10:46.000Z</time>
      </trkpt>
      <trkpt lat="45.91646" lon="4.90413">
        <ele>292.79998779297</ele>
        <time>2014-09-07T08:10:53.000Z</time>
      </trkpt>
      <trkpt lat="45.91634" lon="4.90376">
        <ele>294.20001220703</ele>
        <time>2014-09-07T08:11:01.000Z</time>
      </trkpt>
      <trkpt lat="45.91624" lon="4.90339">
        <ele>294.39999389648</ele>
        <time>2014-09-07T08:11:09.000Z</time>
      </trkpt>
      <trkpt lat="45.91615" lon="4.90294">
        <ele>295</ele>
        <time>2014-09-07T08:11:19.000Z</time>
      </trkpt>
      <trkpt lat="45.91612" lon="4.90255">
        <ele>294.60000610352</ele>
        <time>2014-09-07T08:11:28.000Z</time>
      </trkpt>
      <trkpt lat="45.91608" lon="4.90209">
        <ele>294.60000610352</ele>
        <time>2014-09-07T08:11:37.000Z</time>
      </trkpt>
      <trkpt lat="45.916" lon="4.9018">
        <ele>293.79998779297</ele>
        <time>2014-09-07T08:11:42.000Z</time>
      </trkpt>
      <trkpt lat="45.91578" lon="4.90138">
        <ele>292.60000610352</ele>
        <time>2014-09-07T08:11:50.000Z</time>
      </trkpt>
      <trkpt lat="45.91558" lon="4.90093">
        <ele>291.60000610352</ele>
        <time>2014-09-07T08:11:59.000Z</time>
      </trkpt>
      <trkpt lat="45.91547" lon="4.90059">
        <ele>291.39999389648</ele>
        <time>2014-09-07T08:12:05.000Z</time>
      </trkpt>
      <trkpt lat="45.91527" lon="4.90013">
        <ele>290.39999389648</ele>
        <time>2014-09-07T08:12:14.000Z</time>
      </trkpt>
      <trkpt lat="45.91512" lon="4.89976">
        <ele>289.39999389648</ele>
        <time>2014-09-07T08:12:22.000Z</time>
      </trkpt>
      <trkpt lat="45.9149" lon="4.89935">
        <ele>288.79998779297</ele>
        <time>2014-09-07T08:12:31.000Z</time>
      </trkpt>
      <trkpt lat="45.91466" lon="4.89889">
        <ele>288.20001220703</ele>
        <time>2014-09-07T08:12:41.000Z</time>
      </trkpt>
      <trkpt lat="45.9144" lon="4.89844">
        <ele>287.79998779297</ele>
        <time>2014-09-07T08:12:51.000Z</time>
      </trkpt>
      <trkpt lat="45.91412" lon="4.898">
        <ele>287</ele>
        <time>2014-09-07T08:13:01.000Z</time>
      </trkpt>
      <trkpt lat="45.91382" lon="4.89749">
        <ele>288.60000610352</ele>
        <time>2014-09-07T08:13:13.000Z</time>
      </trkpt>
      <trkpt lat="45.91359" lon="4.89706">
        <ele>290.39999389648</ele>
        <time>2014-09-07T08:13:23.000Z</time>
      </trkpt>
      <trkpt lat="45.91343" lon="4.89668">
        <ele>292.39999389648</ele>
        <time>2014-09-07T08:13:32.000Z</time>
      </trkpt>
      <trkpt lat="45.91332" lon="4.89632">
        <ele>294.60000610352</ele>
        <time>2014-09-07T08:13:40.000Z</time>
      </trkpt>
      <trkpt lat="45.91327" lon="4.8959">
        <ele>296</ele>
        <time>2014-09-07T08:13:49.000Z</time>
      </trkpt>
      <trkpt lat="45.91325" lon="4.89552">
        <ele>297</ele>
        <time>2014-09-07T08:13:57.000Z</time>
      </trkpt>
      <trkpt lat="45.91325" lon="4.89502">
        <ele>297.20001220703</ele>
        <time>2014-09-07T08:14:07.000Z</time>
      </trkpt>
      <trkpt lat="45.91323" lon="4.89456">
        <ele>297.20001220703</ele>
        <time>2014-09-07T08:14:16.000Z</time>
      </trkpt>
      <trkpt lat="45.9132" lon="4.89422">
        <ele>296.60000610352</ele>
        <time>2014-09-07T08:14:23.000Z</time>
      </trkpt>
      <trkpt lat="45.91313" lon="4.8938">
        <ele>295.60000610352</ele>
        <time>2014-09-07T08:14:32.000Z</time>
      </trkpt>
      <trkpt lat="45.91301" lon="4.89337">
        <ele>294.39999389648</ele>
        <time>2014-09-07T08:14:41.000Z</time>
      </trkpt>
      <trkpt lat="45.91284" lon="4.89292">
        <ele>293.79998779297</ele>
        <time>2014-09-07T08:14:51.000Z</time>
      </trkpt>
      <trkpt lat="45.91271" lon="4.8926">
        <ele>293.60000610352</ele>
        <time>2014-09-07T08:14:58.000Z</time>
      </trkpt>
      <trkpt lat="45.91256" lon="4.8923">
        <ele>293.39999389648</ele>
        <time>2014-09-07T08:15:05.000Z</time>
      </trkpt>
      <trkpt lat="45.91241" lon="4.89198">
        <ele>293.60000610352</ele>
        <time>2014-09-07T08:15:12.000Z</time>
      </trkpt>
      <trkpt lat="45.91219" lon="4.8915">
        <ele>294</ele>
        <time>2014-09-07T08:15:22.000Z</time>
      </trkpt>
      <trkpt lat="45.91205" lon="4.89121">
        <ele>294</ele>
        <time>2014-09-07T08:15:28.000Z</time>
      </trkpt>
      <trkpt lat="45.91203" lon="4.89115">
        <ele>294</ele>
        <time>2014-09-07T08:15:29.000Z</time>
      </trkpt>
      <trkpt lat="45.91197" lon="4.89106">
        <ele>293.79998779297</ele>
        <time>2014-09-07T08:15:31.000Z</time>
      </trkpt>
      <trkpt lat="45.91198" lon="4.8909">
        <ele>293.60000610352</ele>
        <time>2014-09-07T08:15:35.000Z</time>
      </trkpt>
      <trkpt lat="45.91202" lon="4.89089">
        <ele>293.60000610352</ele>
        <time>2014-09-07T08:15:36.000Z</time>
      </trkpt>
      <trkpt lat="45.91233" lon="4.89083">
        <ele>293.20001220703</ele>
        <time>2014-09-07T08:15:45.000Z</time>
      </trkpt>
      <trkpt lat="45.91257" lon="4.89084">
        <ele>292.39999389648</ele>
        <time>2014-09-07T08:15:51.000Z</time>
      </trkpt>
      <trkpt lat="45.91284" lon="4.89091">
        <ele>291.39999389648</ele>
        <time>2014-09-07T08:15:57.000Z</time>
      </trkpt>
      <trkpt lat="45.91312" lon="4.89101">
        <ele>290.39999389648</ele>
        <time>2014-09-07T08:16:03.000Z</time>
      </trkpt>
      <trkpt lat="45.91341" lon="4.89111">
        <ele>289.79998779297</ele>
        <time>2014-09-07T08:16:09.000Z</time>
      </trkpt>
      <trkpt lat="45.91386" lon="4.89126">
        <ele>289.20001220703</ele>
        <time>2014-09-07T08:16:18.000Z</time>
      </trkpt>
      <trkpt lat="45.91412" lon="4.89134">
        <ele>290.60000610352</ele>
        <time>2014-09-07T08:16:24.000Z</time>
      </trkpt>
      <trkpt lat="45.9142" lon="4.89134">
        <ele>291</ele>
        <time>2014-09-07T08:16:26.000Z</time>
      </trkpt>
      <trkpt lat="45.91447" lon="4.89123">
        <ele>291</ele>
        <time>2014-09-07T08:16:33.000Z</time>
      </trkpt>
      <trkpt lat="45.91468" lon="4.89109">
        <ele>291.60000610352</ele>
        <time>2014-09-07T08:16:40.000Z</time>
      </trkpt>
      <trkpt lat="45.91487" lon="4.89104">
        <ele>293</ele>
        <time>2014-09-07T08:16:46.000Z</time>
      </trkpt>
      <trkpt lat="45.91513" lon="4.89104">
        <ele>295</ele>
        <time>2014-09-07T08:16:54.000Z</time>
      </trkpt>
      <trkpt lat="45.91539" lon="4.89101">
        <ele>297.20001220703</ele>
        <time>2014-09-07T08:17:02.000Z</time>
      </trkpt>
      <trkpt lat="45.91567" lon="4.89099">
        <ele>299</ele>
        <time>2014-09-07T08:17:11.000Z</time>
      </trkpt>
      <trkpt lat="45.91592" lon="4.89098">
        <ele>300.39999389648</ele>
        <time>2014-09-07T08:17:20.000Z</time>
      </trkpt>
      <trkpt lat="45.91609" lon="4.89097">
        <ele>301.60000610352</ele>
        <time>2014-09-07T08:17:27.000Z</time>
      </trkpt>
      <trkpt lat="45.91628" lon="4.89096">
        <ele>302.39999389648</ele>
        <time>2014-09-07T08:17:34.000Z</time>
      </trkpt>
      <trkpt lat="45.91637" lon="4.89096">
        <ele>302.79998779297</ele>
        <time>2014-09-07T08:17:37.000Z</time>
      </trkpt>
      <trkpt lat="45.91641" lon="4.89112">
        <ele>303.39999389648</ele>
        <time>2014-09-07T08:17:42.000Z</time>
      </trkpt>
      <trkpt lat="45.91641" lon="4.89135">
        <ele>303.79998779297</ele>
        <time>2014-09-07T08:17:47.000Z</time>
      </trkpt>
      <trkpt lat="45.91641" lon="4.89164">
        <ele>303.79998779297</ele>
        <time>2014-09-07T08:17:54.000Z</time>
      </trkpt>
      <trkpt lat="45.91639" lon="4.89191">
        <ele>304</ele>
        <time>2014-09-07T08:18:01.000Z</time>
      </trkpt>
      <trkpt lat="45.91637" lon="4.89221">
        <ele>303.60000610352</ele>
        <time>2014-09-07T08:18:09.000Z</time>
      </trkpt>
      <trkpt lat="45.91635" lon="4.89249">
        <ele>303.39999389648</ele>
        <time>2014-09-07T08:18:16.000Z</time>
      </trkpt>
      <trkpt lat="45.91633" lon="4.89272">
        <ele>303</ele>
        <time>2014-09-07T08:18:22.000Z</time>
      </trkpt>
      <trkpt lat="45.91636" lon="4.89287">
        <ele>303</ele>
        <time>2014-09-07T08:18:26.000Z</time>
      </trkpt>
      <trkpt lat="45.91638" lon="4.89304">
        <ele>303.20001220703</ele>
        <time>2014-09-07T08:18:30.000Z</time>
      </trkpt>
      <trkpt lat="45.91636" lon="4.89336">
        <ele>303.79998779297</ele>
        <time>2014-09-07T08:18:37.000Z</time>
      </trkpt>
      <trkpt lat="45.91629" lon="4.89358">
        <ele>304.20001220703</ele>
        <time>2014-09-07T08:18:41.000Z</time>
      </trkpt>
      <trkpt lat="45.91623" lon="4.89377">
        <ele>305.20001220703</ele>
        <time>2014-09-07T08:18:44.000Z</time>
      </trkpt>
      <trkpt lat="45.91607" lon="4.89396">
        <ele>305.39999389648</ele>
        <time>2014-09-07T08:18:49.000Z</time>
      </trkpt>
      <trkpt lat="45.916" lon="4.89406">
        <ele>305.39999389648</ele>
        <time>2014-09-07T08:18:51.000Z</time>
      </trkpt>
      <trkpt lat="45.91596" lon="4.89416">
        <ele>305.20001220703</ele>
        <time>2014-09-07T08:18:53.000Z</time>
      </trkpt>
      <trkpt lat="45.91585" lon="4.89434">
        <ele>305.79998779297</ele>
        <time>2014-09-07T08:18:57.000Z</time>
      </trkpt>
      <trkpt lat="45.91583" lon="4.89439">
        <ele>305.79998779297</ele>
        <time>2014-09-07T08:18:58.000Z</time>
      </trkpt>
      <trkpt lat="45.9158" lon="4.89473">
        <ele>304</ele>
        <time>2014-09-07T08:19:06.000Z</time>
      </trkpt>
      <trkpt lat="45.9158" lon="4.89476">
        <ele>303.60000610352</ele>
        <time>2014-09-07T08:19:07.000Z</time>
      </trkpt>
      <trkpt lat="45.91583" lon="4.89483">
        <ele>302.60000610352</ele>
        <time>2014-09-07T08:19:13.000Z</time>
      </trkpt>
      <trkpt lat="45.91584" lon="4.89484">
        <ele>302.60000610352</ele>
        <time>2014-09-07T08:19:14.000Z</time>
      </trkpt>
      <trkpt lat="45.91586" lon="4.89496">
        <ele>301.39999389648</ele>
        <time>2014-09-07T08:19:19.000Z</time>
      </trkpt>
      <trkpt lat="45.91586" lon="4.89499">
        <ele>301</ele>
        <time>2014-09-07T08:19:20.000Z</time>
      </trkpt>
      <trkpt lat="45.9159" lon="4.89507">
        <ele>300</ele>
        <time>2014-09-07T08:19:23.000Z</time>
      </trkpt>
      <trkpt lat="45.91599" lon="4.89524">
        <ele>297.60000610352</ele>
        <time>2014-09-07T08:19:28.000Z</time>
      </trkpt>
      <trkpt lat="45.91601" lon="4.89547">
        <ele>295.79998779297</ele>
        <time>2014-09-07T08:19:33.000Z</time>
      </trkpt>
      <trkpt lat="45.91602" lon="4.89569">
        <ele>294</ele>
        <time>2014-09-07T08:19:37.000Z</time>
      </trkpt>
      <trkpt lat="45.91606" lon="4.89572">
        <ele>293.20001220703</ele>
        <time>2014-09-07T08:19:38.000Z</time>
      </trkpt>
      <trkpt lat="45.91612" lon="4.89577">
        <ele>292</ele>
        <time>2014-09-07T08:19:40.000Z</time>
      </trkpt>
      <trkpt lat="45.91624" lon="4.8958">
        <ele>290.20001220703</ele>
        <time>2014-09-07T08:19:45.000Z</time>
      </trkpt>
      <trkpt lat="45.9164" lon="4.89568">
        <ele>289</ele>
        <time>2014-09-07T08:19:51.000Z</time>
      </trkpt>
      <trkpt lat="45.91655" lon="4.89541">
        <ele>289.39999389648</ele>
        <time>2014-09-07T08:19:57.000Z</time>
      </trkpt>
      <trkpt lat="45.91668" lon="4.89522">
        <ele>289.60000610352</ele>
        <time>2014-09-07T08:20:02.000Z</time>
      </trkpt>
      <trkpt lat="45.91682" lon="4.89503">
        <ele>290</ele>
        <time>2014-09-07T08:20:08.000Z</time>
      </trkpt>
      <trkpt lat="45.91694" lon="4.89492">
        <ele>288.39999389648</ele>
        <time>2014-09-07T08:20:12.000Z</time>
      </trkpt>
      <trkpt lat="45.91715" lon="4.89494">
        <ele>284.60000610352</ele>
        <time>2014-09-07T08:20:17.000Z</time>
      </trkpt>
      <trkpt lat="45.91741" lon="4.89497">
        <ele>283</ele>
        <time>2014-09-07T08:20:24.000Z</time>
      </trkpt>
      <trkpt lat="45.91749" lon="4.89497">
        <ele>283</ele>
        <time>2014-09-07T08:20:28.000Z</time>
      </trkpt>
      <trkpt lat="45.91776" lon="4.89501">
        <ele>282.60000610352</ele>
        <time>2014-09-07T08:20:36.000Z</time>
      </trkpt>
      <trkpt lat="45.91804" lon="4.89506">
        <ele>281.79998779297</ele>
        <time>2014-09-07T08:20:44.000Z</time>
      </trkpt>
      <trkpt lat="45.91808" lon="4.89508">
        <ele>281.60000610352</ele>
        <time>2014-09-07T08:20:48.000Z</time>
      </trkpt>
      <trkpt lat="45.9181" lon="4.89508">
        <ele>281.79998779297</ele>
        <time>2014-09-07T08:20:52.000Z</time>
      </trkpt>
      <trkpt lat="45.9181" lon="4.89507">
        <ele>281.79998779297</ele>
        <time>2014-09-07T08:20:53.000Z</time>
      </trkpt>
      <trkpt lat="45.91822" lon="4.89477">
        <ele>282</ele>
        <time>2014-09-07T08:23:43.000Z</time>
      </trkpt>
      <trkpt lat="45.91835" lon="4.89452">
        <ele>282.20001220703</ele>
        <time>2014-09-07T08:23:50.000Z</time>
      </trkpt>
      <trkpt lat="45.91849" lon="4.89424">
        <ele>282.60000610352</ele>
        <time>2014-09-07T08:23:57.000Z</time>
      </trkpt>
      <trkpt lat="45.91867" lon="4.89386">
        <ele>282.39999389648</ele>
        <time>2014-09-07T08:24:05.000Z</time>
      </trkpt>
      <trkpt lat="45.91886" lon="4.89351">
        <ele>283</ele>
        <time>2014-09-07T08:24:13.000Z</time>
      </trkpt>
      <trkpt lat="45.91907" lon="4.89312">
        <ele>284.20001220703</ele>
        <time>2014-09-07T08:24:22.000Z</time>
      </trkpt>
      <trkpt lat="45.91921" lon="4.89284">
        <ele>284.20001220703</ele>
        <time>2014-09-07T08:24:29.000Z</time>
      </trkpt>
      <trkpt lat="45.91933" lon="4.89258">
        <ele>283.39999389648</ele>
        <time>2014-09-07T08:24:35.000Z</time>
      </trkpt>
      <trkpt lat="45.9195" lon="4.89226">
        <ele>284.39999389648</ele>
        <time>2014-09-07T08:24:43.000Z</time>
      </trkpt>
      <trkpt lat="45.91964" lon="4.89188">
        <ele>285</ele>
        <time>2014-09-07T08:24:51.000Z</time>
      </trkpt>
      <trkpt lat="45.91978" lon="4.8914">
        <ele>284.60000610352</ele>
        <time>2014-09-07T08:25:00.000Z</time>
      </trkpt>
      <trkpt lat="45.91987" lon="4.89114">
        <ele>284.60000610352</ele>
        <time>2014-09-07T08:25:05.000Z</time>
      </trkpt>
      <trkpt lat="45.92" lon="4.89092">
        <ele>285.20001220703</ele>
        <time>2014-09-07T08:25:10.000Z</time>
      </trkpt>
      <trkpt lat="45.92027" lon="4.89065">
        <ele>286.39999389648</ele>
        <time>2014-09-07T08:25:19.000Z</time>
      </trkpt>
      <trkpt lat="45.92051" lon="4.89047">
        <ele>287.79998779297</ele>
        <time>2014-09-07T08:25:27.000Z</time>
      </trkpt>
      <trkpt lat="45.92064" lon="4.89021">
        <ele>288.20001220703</ele>
        <time>2014-09-07T08:25:34.000Z</time>
      </trkpt>
      <trkpt lat="45.92075" lon="4.88993">
        <ele>288.39999389648</ele>
        <time>2014-09-07T08:25:41.000Z</time>
      </trkpt>
      <trkpt lat="45.92088" lon="4.88981">
        <ele>289</ele>
        <time>2014-09-07T08:25:46.000Z</time>
      </trkpt>
      <trkpt lat="45.92108" lon="4.88978">
        <ele>290.79998779297</ele>
        <time>2014-09-07T08:25:53.000Z</time>
      </trkpt>
      <trkpt lat="45.92132" lon="4.88981">
        <ele>292.60000610352</ele>
        <time>2014-09-07T08:26:01.000Z</time>
      </trkpt>
      <trkpt lat="45.92148" lon="4.88974">
        <ele>294</ele>
        <time>2014-09-07T08:26:07.000Z</time>
      </trkpt>
      <trkpt lat="45.92156" lon="4.88952">
        <ele>294.60000610352</ele>
        <time>2014-09-07T08:26:13.000Z</time>
      </trkpt>
      <trkpt lat="45.9216" lon="4.8892">
        <ele>294.79998779297</ele>
        <time>2014-09-07T08:26:21.000Z</time>
      </trkpt>
      <trkpt lat="45.92159" lon="4.88889">
        <ele>294.60000610352</ele>
        <time>2014-09-07T08:26:29.000Z</time>
      </trkpt>
      <trkpt lat="45.92164" lon="4.88867">
        <ele>294.20001220703</ele>
        <time>2014-09-07T08:26:35.000Z</time>
      </trkpt>
      <trkpt lat="45.92178" lon="4.88862">
        <ele>294.39999389648</ele>
        <time>2014-09-07T08:26:40.000Z</time>
      </trkpt>
      <trkpt lat="45.92208" lon="4.88854">
        <ele>294.60000610352</ele>
        <time>2014-09-07T08:26:50.000Z</time>
      </trkpt>
      <trkpt lat="45.92232" lon="4.88846">
        <ele>294.60000610352</ele>
        <time>2014-09-07T08:26:58.000Z</time>
      </trkpt>
      <trkpt lat="45.92256" lon="4.88842">
        <ele>294.60000610352</ele>
        <time>2014-09-07T08:27:05.000Z</time>
      </trkpt>
      <trkpt lat="45.92284" lon="4.88842">
        <ele>294.60000610352</ele>
        <time>2014-09-07T08:27:13.000Z</time>
      </trkpt>
      <trkpt lat="45.92325" lon="4.88845">
        <ele>294.60000610352</ele>
        <time>2014-09-07T08:27:24.000Z</time>
      </trkpt>
      <trkpt lat="45.92352" lon="4.88848">
        <ele>294.79998779297</ele>
        <time>2014-09-07T08:27:31.000Z</time>
      </trkpt>
      <trkpt lat="45.92363" lon="4.88847">
        <ele>294.60000610352</ele>
        <time>2014-09-07T08:27:34.000Z</time>
      </trkpt>
      <trkpt lat="45.92366" lon="4.88828">
        <ele>294.79998779297</ele>
        <time>2014-09-07T08:27:38.000Z</time>
      </trkpt>
      <trkpt lat="45.9236" lon="4.888">
        <ele>294.60000610352</ele>
        <time>2014-09-07T08:27:43.000Z</time>
      </trkpt>
      <trkpt lat="45.9235" lon="4.88748">
        <ele>295.60000610352</ele>
        <time>2014-09-07T08:27:52.000Z</time>
      </trkpt>
      <trkpt lat="45.92348" lon="4.88736">
        <ele>295.60000610352</ele>
        <time>2014-09-07T08:27:54.000Z</time>
      </trkpt>
      <trkpt lat="45.92347" lon="4.88706">
        <ele>296</ele>
        <time>2014-09-07T08:27:59.000Z</time>
      </trkpt>
      <trkpt lat="45.92351" lon="4.88703">
        <ele>296</ele>
        <time>2014-09-07T08:28:00.000Z</time>
      </trkpt>
      <trkpt lat="45.92369" lon="4.88677">
        <ele>295.39999389648</ele>
        <time>2014-09-07T08:28:06.000Z</time>
      </trkpt>
      <trkpt lat="45.92379" lon="4.88632">
        <ele>295</ele>
        <time>2014-09-07T08:28:14.000Z</time>
      </trkpt>
      <trkpt lat="45.92385" lon="4.88583">
        <ele>295</ele>
        <time>2014-09-07T08:28:23.000Z</time>
      </trkpt>
      <trkpt lat="45.9239" lon="4.88545">
        <ele>295</ele>
        <time>2014-09-07T08:28:30.000Z</time>
      </trkpt>
      <trkpt lat="45.92395" lon="4.88497">
        <ele>295</ele>
        <time>2014-09-07T08:28:39.000Z</time>
      </trkpt>
      <trkpt lat="45.92398" lon="4.88462">
        <ele>295</ele>
        <time>2014-09-07T08:28:46.000Z</time>
      </trkpt>
      <trkpt lat="45.92402" lon="4.88424">
        <ele>294.39999389648</ele>
        <time>2014-09-07T08:28:53.000Z</time>
      </trkpt>
      <trkpt lat="45.92408" lon="4.88369">
        <ele>293.39999389648</ele>
        <time>2014-09-07T08:29:02.000Z</time>
      </trkpt>
      <trkpt lat="45.92418" lon="4.88325">
        <ele>292.20001220703</ele>
        <time>2014-09-07T08:29:08.000Z</time>
      </trkpt>
      <trkpt lat="45.92443" lon="4.88254">
        <ele>290</ele>
        <time>2014-09-07T08:29:18.000Z</time>
      </trkpt>
      <trkpt lat="45.92454" lon="4.88221">
        <ele>290.60000610352</ele>
        <time>2014-09-07T08:29:24.000Z</time>
      </trkpt>
      <trkpt lat="45.92455" lon="4.88217">
        <ele>290.60000610352</ele>
        <time>2014-09-07T08:29:25.000Z</time>
      </trkpt>
      <trkpt lat="45.92461" lon="4.88201">
        <ele>290.79998779297</ele>
        <time>2014-09-07T08:29:31.000Z</time>
      </trkpt>
      <trkpt lat="45.9247" lon="4.88169">
        <ele>290.20001220703</ele>
        <time>2014-09-07T08:29:37.000Z</time>
      </trkpt>
      <trkpt lat="45.92489" lon="4.88129">
        <ele>289.39999389648</ele>
        <time>2014-09-07T08:29:45.000Z</time>
      </trkpt>
      <trkpt lat="45.92511" lon="4.88092">
        <ele>289.20001220703</ele>
        <time>2014-09-07T08:29:53.000Z</time>
      </trkpt>
      <trkpt lat="45.92535" lon="4.88059">
        <ele>288.39999389648</ele>
        <time>2014-09-07T08:30:01.000Z</time>
      </trkpt>
      <trkpt lat="45.92558" lon="4.88029">
        <ele>287.79998779297</ele>
        <time>2014-09-07T08:30:08.000Z</time>
      </trkpt>
      <trkpt lat="45.92578" lon="4.88005">
        <ele>288</ele>
        <time>2014-09-07T08:30:14.000Z</time>
      </trkpt>
      <trkpt lat="45.92601" lon="4.87974">
        <ele>288</ele>
        <time>2014-09-07T08:30:21.000Z</time>
      </trkpt>
      <trkpt lat="45.92613" lon="4.87933">
        <ele>287.39999389648</ele>
        <time>2014-09-07T08:30:28.000Z</time>
      </trkpt>
      <trkpt lat="45.92616" lon="4.87895">
        <ele>287.39999389648</ele>
        <time>2014-09-07T08:30:34.000Z</time>
      </trkpt>
      <trkpt lat="45.92618" lon="4.8787">
        <ele>287.39999389648</ele>
        <time>2014-09-07T08:30:38.000Z</time>
      </trkpt>
      <trkpt lat="45.92617" lon="4.87812">
        <ele>287.79998779297</ele>
        <time>2014-09-07T08:30:48.000Z</time>
      </trkpt>
      <trkpt lat="45.92616" lon="4.87752">
        <ele>288.79998779297</ele>
        <time>2014-09-07T08:30:58.000Z</time>
      </trkpt>
      <trkpt lat="45.92618" lon="4.8771">
        <ele>290.39999389648</ele>
        <time>2014-09-07T08:31:06.000Z</time>
      </trkpt>
      <trkpt lat="45.92629" lon="4.87683">
        <ele>291.39999389648</ele>
        <time>2014-09-07T08:31:12.000Z</time>
      </trkpt>
      <trkpt lat="45.9264" lon="4.87648">
        <ele>292.39999389648</ele>
        <time>2014-09-07T08:31:19.000Z</time>
      </trkpt>
      <trkpt lat="45.92651" lon="4.87607">
        <ele>292.60000610352</ele>
        <time>2014-09-07T08:31:27.000Z</time>
      </trkpt>
      <trkpt lat="45.92654" lon="4.87573">
        <ele>292.20001220703</ele>
        <time>2014-09-07T08:31:34.000Z</time>
      </trkpt>
      <trkpt lat="45.92656" lon="4.87537">
        <ele>292</ele>
        <time>2014-09-07T08:31:42.000Z</time>
      </trkpt>
      <trkpt lat="45.92661" lon="4.87501">
        <ele>291.60000610352</ele>
        <time>2014-09-07T08:31:50.000Z</time>
      </trkpt>
      <trkpt lat="45.92671" lon="4.87447">
        <ele>291.20001220703</ele>
        <time>2014-09-07T08:32:00.000Z</time>
      </trkpt>
      <trkpt lat="45.92682" lon="4.87394">
        <ele>290.79998779297</ele>
        <time>2014-09-07T08:32:09.000Z</time>
      </trkpt>
      <trkpt lat="45.92696" lon="4.87353">
        <ele>290.60000610352</ele>
        <time>2014-09-07T08:32:17.000Z</time>
      </trkpt>
      <trkpt lat="45.92705" lon="4.8732">
        <ele>290.79998779297</ele>
        <time>2014-09-07T08:32:24.000Z</time>
      </trkpt>
      <trkpt lat="45.92716" lon="4.87281">
        <ele>290.79998779297</ele>
        <time>2014-09-07T08:32:32.000Z</time>
      </trkpt>
      <trkpt lat="45.92726" lon="4.87244">
        <ele>289.79998779297</ele>
        <time>2014-09-07T08:32:38.000Z</time>
      </trkpt>
      <trkpt lat="45.92741" lon="4.87186">
        <ele>289</ele>
        <time>2014-09-07T08:32:47.000Z</time>
      </trkpt>
      <trkpt lat="45.92753" lon="4.87145">
        <ele>288.60000610352</ele>
        <time>2014-09-07T08:32:54.000Z</time>
      </trkpt>
      <trkpt lat="45.92762" lon="4.87114">
        <ele>287.79998779297</ele>
        <time>2014-09-07T08:33:00.000Z</time>
      </trkpt>
      <trkpt lat="45.92773" lon="4.87073">
        <ele>287.39999389648</ele>
        <time>2014-09-07T08:33:10.000Z</time>
      </trkpt>
      <trkpt lat="45.92781" lon="4.87043">
        <ele>287</ele>
        <time>2014-09-07T08:33:18.000Z</time>
      </trkpt>
      <trkpt lat="45.92791" lon="4.87004">
        <ele>286.39999389648</ele>
        <time>2014-09-07T08:33:28.000Z</time>
      </trkpt>
      <trkpt lat="45.92799" lon="4.8697">
        <ele>286</ele>
        <time>2014-09-07T08:33:36.000Z</time>
      </trkpt>
      <trkpt lat="45.92808" lon="4.86933">
        <ele>285.79998779297</ele>
        <time>2014-09-07T08:33:42.000Z</time>
      </trkpt>
      <trkpt lat="45.92821" lon="4.86881">
        <ele>285.39999389648</ele>
        <time>2014-09-07T08:33:48.000Z</time>
      </trkpt>
      <trkpt lat="45.92827" lon="4.8686">
        <ele>285.60000610352</ele>
        <time>2014-09-07T08:33:50.000Z</time>
      </trkpt>
      <trkpt lat="45.92846" lon="4.86783">
        <ele>286.39999389648</ele>
        <time>2014-09-07T08:33:57.000Z</time>
      </trkpt>
      <trkpt lat="45.92856" lon="4.86734">
        <ele>286.60000610352</ele>
        <time>2014-09-07T08:34:02.000Z</time>
      </trkpt>
      <trkpt lat="45.92862" lon="4.86684">
        <ele>287.20001220703</ele>
        <time>2014-09-07T08:34:08.000Z</time>
      </trkpt>
      <trkpt lat="45.92869" lon="4.86624">
        <ele>288</ele>
        <time>2014-09-07T08:34:16.000Z</time>
      </trkpt>
      <trkpt lat="45.92878" lon="4.8655">
        <ele>289.79998779297</ele>
        <time>2014-09-07T08:34:26.000Z</time>
      </trkpt>
      <trkpt lat="45.92886" lon="4.86493">
        <ele>290</ele>
        <time>2014-09-07T08:34:34.000Z</time>
      </trkpt>
      <trkpt lat="45.9289" lon="4.86452">
        <ele>290</ele>
        <time>2014-09-07T08:34:41.000Z</time>
      </trkpt>
      <trkpt lat="45.92896" lon="4.86397">
        <ele>289.20001220703</ele>
        <time>2014-09-07T08:34:52.000Z</time>
      </trkpt>
      <trkpt lat="45.92899" lon="4.8637">
        <ele>288.79998779297</ele>
        <time>2014-09-07T08:34:58.000Z</time>
      </trkpt>
      <trkpt lat="45.92901" lon="4.86342">
        <ele>288.20001220703</ele>
        <time>2014-09-07T08:35:04.000Z</time>
      </trkpt>
      <trkpt lat="45.92905" lon="4.86295">
        <ele>287.20001220703</ele>
        <time>2014-09-07T08:35:13.000Z</time>
      </trkpt>
      <trkpt lat="45.92909" lon="4.86256">
        <ele>287.20001220703</ele>
        <time>2014-09-07T08:35:20.000Z</time>
      </trkpt>
      <trkpt lat="45.92913" lon="4.8621">
        <ele>287</ele>
        <time>2014-09-07T08:35:28.000Z</time>
      </trkpt>
      <trkpt lat="45.92918" lon="4.86153">
        <ele>287</ele>
        <time>2014-09-07T08:35:37.000Z</time>
      </trkpt>
      <trkpt lat="45.92922" lon="4.86098">
        <ele>287</ele>
        <time>2014-09-07T08:35:45.000Z</time>
      </trkpt>
      <trkpt lat="45.92923" lon="4.86063">
        <ele>286.79998779297</ele>
        <time>2014-09-07T08:35:50.000Z</time>
      </trkpt>
      <trkpt lat="45.92923" lon="4.85986">
        <ele>286.79998779297</ele>
        <time>2014-09-07T08:36:01.000Z</time>
      </trkpt>
      <trkpt lat="45.92924" lon="4.85933">
        <ele>287</ele>
        <time>2014-09-07T08:36:09.000Z</time>
      </trkpt>
      <trkpt lat="45.92928" lon="4.85874">
        <ele>287.79998779297</ele>
        <time>2014-09-07T08:36:18.000Z</time>
      </trkpt>
      <trkpt lat="45.92933" lon="4.85848">
        <ele>288</ele>
        <time>2014-09-07T08:36:22.000Z</time>
      </trkpt>
      <trkpt lat="45.92942" lon="4.85787">
        <ele>290</ele>
        <time>2014-09-07T08:36:31.000Z</time>
      </trkpt>
      <trkpt lat="45.92956" lon="4.85737">
        <ele>289.79998779297</ele>
        <time>2014-09-07T08:36:39.000Z</time>
      </trkpt>
      <trkpt lat="45.92965" lon="4.85714">
        <ele>289.79998779297</ele>
        <time>2014-09-07T08:36:43.000Z</time>
      </trkpt>
      <trkpt lat="45.92989" lon="4.85664">
        <ele>288.60000610352</ele>
        <time>2014-09-07T08:36:53.000Z</time>
      </trkpt>
      <trkpt lat="45.93012" lon="4.85621">
        <ele>287</ele>
        <time>2014-09-07T08:37:01.000Z</time>
      </trkpt>
      <trkpt lat="45.93027" lon="4.85591">
        <ele>286.20001220703</ele>
        <time>2014-09-07T08:37:06.000Z</time>
      </trkpt>
      <trkpt lat="45.93042" lon="4.8554">
        <ele>284.20001220703</ele>
        <time>2014-09-07T08:37:13.000Z</time>
      </trkpt>
      <trkpt lat="45.93053" lon="4.85479">
        <ele>282</ele>
        <time>2014-09-07T08:37:21.000Z</time>
      </trkpt>
      <trkpt lat="45.93067" lon="4.85401">
        <ele>280.39999389648</ele>
        <time>2014-09-07T08:37:31.000Z</time>
      </trkpt>
      <trkpt lat="45.93079" lon="4.85334">
        <ele>281</ele>
        <time>2014-09-07T08:37:40.000Z</time>
      </trkpt>
      <trkpt lat="45.93088" lon="4.85285">
        <ele>281.20001220703</ele>
        <time>2014-09-07T08:37:47.000Z</time>
      </trkpt>
      <trkpt lat="45.9309" lon="4.85271">
        <ele>281.20001220703</ele>
        <time>2014-09-07T08:37:49.000Z</time>
      </trkpt>
      <trkpt lat="45.93094" lon="4.85254">
        <ele>281.20001220703</ele>
        <time>2014-09-07T08:37:52.000Z</time>
      </trkpt>
      <trkpt lat="45.93087" lon="4.85235">
        <ele>281.20001220703</ele>
        <time>2014-09-07T08:37:57.000Z</time>
      </trkpt>
      <trkpt lat="45.93068" lon="4.85225">
        <ele>281.79998779297</ele>
        <time>2014-09-07T08:38:03.000Z</time>
      </trkpt>
      <trkpt lat="45.93046" lon="4.85213">
        <ele>281.79998779297</ele>
        <time>2014-09-07T08:38:10.000Z</time>
      </trkpt>
      <trkpt lat="45.9302" lon="4.85197">
        <ele>281.60000610352</ele>
        <time>2014-09-07T08:38:18.000Z</time>
      </trkpt>
      <trkpt lat="45.92986" lon="4.85177">
        <ele>281.20001220703</ele>
        <time>2014-09-07T08:38:28.000Z</time>
      </trkpt>
      <trkpt lat="45.92964" lon="4.85163">
        <ele>281</ele>
        <time>2014-09-07T08:38:35.000Z</time>
      </trkpt>
      <trkpt lat="45.92948" lon="4.85155">
        <ele>281</ele>
        <time>2014-09-07T08:38:41.000Z</time>
      </trkpt>
      <trkpt lat="45.92947" lon="4.85154">
        <ele>281</ele>
        <time>2014-09-07T08:38:44.000Z</time>
      </trkpt>
      <trkpt lat="45.92937" lon="4.85157">
        <ele>281</ele>
        <time>2014-09-07T08:40:33.000Z</time>
      </trkpt>
      <trkpt lat="45.92919" lon="4.85157">
        <ele>281</ele>
        <time>2014-09-07T08:40:40.000Z</time>
      </trkpt>
      <trkpt lat="45.92899" lon="4.85157">
        <ele>280.60000610352</ele>
        <time>2014-09-07T08:40:47.000Z</time>
      </trkpt>
      <trkpt lat="45.92883" lon="4.85156">
        <ele>280.60000610352</ele>
        <time>2014-09-07T08:40:53.000Z</time>
      </trkpt>
      <trkpt lat="45.92859" lon="4.85154">
        <ele>280.60000610352</ele>
        <time>2014-09-07T08:41:01.000Z</time>
      </trkpt>
      <trkpt lat="45.92824" lon="4.85152">
        <ele>281</ele>
        <time>2014-09-07T08:41:11.000Z</time>
      </trkpt>
      <trkpt lat="45.92794" lon="4.8515">
        <ele>281.79998779297</ele>
        <time>2014-09-07T08:41:19.000Z</time>
      </trkpt>
      <trkpt lat="45.92762" lon="4.8515">
        <ele>283</ele>
        <time>2014-09-07T08:41:28.000Z</time>
      </trkpt>
      <trkpt lat="45.92739" lon="4.85152">
        <ele>283.39999389648</ele>
        <time>2014-09-07T08:41:35.000Z</time>
      </trkpt>
      <trkpt lat="45.92716" lon="4.85155">
        <ele>283.60000610352</ele>
        <time>2014-09-07T08:41:42.000Z</time>
      </trkpt>
      <trkpt lat="45.92692" lon="4.85159">
        <ele>283.60000610352</ele>
        <time>2014-09-07T08:41:49.000Z</time>
      </trkpt>
      <trkpt lat="45.92664" lon="4.85167">
        <ele>283.20001220703</ele>
        <time>2014-09-07T08:41:57.000Z</time>
      </trkpt>
      <trkpt lat="45.92637" lon="4.85175">
        <ele>282.79998779297</ele>
        <time>2014-09-07T08:42:05.000Z</time>
      </trkpt>
      <trkpt lat="45.92611" lon="4.85184">
        <ele>282.60000610352</ele>
        <time>2014-09-07T08:42:13.000Z</time>
      </trkpt>
      <trkpt lat="45.92589" lon="4.8519">
        <ele>282.39999389648</ele>
        <time>2014-09-07T08:42:20.000Z</time>
      </trkpt>
      <trkpt lat="45.92566" lon="4.8519">
        <ele>282.39999389648</ele>
        <time>2014-09-07T08:42:27.000Z</time>
      </trkpt>
      <trkpt lat="45.92551" lon="4.85176">
        <ele>282.79998779297</ele>
        <time>2014-09-07T08:42:32.000Z</time>
      </trkpt>
      <trkpt lat="45.92536" lon="4.85154">
        <ele>283.79998779297</ele>
        <time>2014-09-07T08:42:38.000Z</time>
      </trkpt>
      <trkpt lat="45.92519" lon="4.85146">
        <ele>284.39999389648</ele>
        <time>2014-09-07T08:42:43.000Z</time>
      </trkpt>
      <trkpt lat="45.92491" lon="4.85149">
        <ele>285.20001220703</ele>
        <time>2014-09-07T08:42:51.000Z</time>
      </trkpt>
      <trkpt lat="45.9246" lon="4.85155">
        <ele>285.60000610352</ele>
        <time>2014-09-07T08:43:00.000Z</time>
      </trkpt>
      <trkpt lat="45.92431" lon="4.8516">
        <ele>284.39999389648</ele>
        <time>2014-09-07T08:43:08.000Z</time>
      </trkpt>
      <trkpt lat="45.92405" lon="4.85163">
        <ele>284.20001220703</ele>
        <time>2014-09-07T08:43:15.000Z</time>
      </trkpt>
      <trkpt lat="45.92402" lon="4.85164">
        <ele>284.20001220703</ele>
        <time>2014-09-07T08:43:16.000Z</time>
      </trkpt>
      <trkpt lat="45.924" lon="4.85176">
        <ele>284.39999389648</ele>
        <time>2014-09-07T08:43:20.000Z</time>
      </trkpt>
      <trkpt lat="45.92413" lon="4.85199">
        <ele>285</ele>
        <time>2014-09-07T08:43:27.000Z</time>
      </trkpt>
      <trkpt lat="45.92429" lon="4.85229">
        <ele>285.39999389648</ele>
        <time>2014-09-07T08:43:35.000Z</time>
      </trkpt>
      <trkpt lat="45.92447" lon="4.85262">
        <ele>285.60000610352</ele>
        <time>2014-09-07T08:43:43.000Z</time>
      </trkpt>
      <trkpt lat="45.92465" lon="4.85294">
        <ele>285.79998779297</ele>
        <time>2014-09-07T08:43:51.000Z</time>
      </trkpt>
      <trkpt lat="45.92481" lon="4.85328">
        <ele>285.79998779297</ele>
        <time>2014-09-07T08:43:59.000Z</time>
      </trkpt>
      <trkpt lat="45.92497" lon="4.85364">
        <ele>285.39999389648</ele>
        <time>2014-09-07T08:44:08.000Z</time>
      </trkpt>
      <trkpt lat="45.9251" lon="4.85395">
        <ele>285.39999389648</ele>
        <time>2014-09-07T08:44:16.000Z</time>
      </trkpt>
      <trkpt lat="45.92523" lon="4.85421">
        <ele>285.39999389648</ele>
        <time>2014-09-07T08:44:23.000Z</time>
      </trkpt>
      <trkpt lat="45.92538" lon="4.85457">
        <ele>285.20001220703</ele>
        <time>2014-09-07T08:44:32.000Z</time>
      </trkpt>
      <trkpt lat="45.92545" lon="4.85491">
        <ele>286</ele>
        <time>2014-09-07T08:44:40.000Z</time>
      </trkpt>
      <trkpt lat="45.92551" lon="4.85527">
        <ele>286.79998779297</ele>
        <time>2014-09-07T08:44:48.000Z</time>
      </trkpt>
      <trkpt lat="45.92556" lon="4.85562">
        <ele>287.20001220703</ele>
        <time>2014-09-07T08:44:56.000Z</time>
      </trkpt>
      <trkpt lat="45.92558" lon="4.85594">
        <ele>287.60000610352</ele>
        <time>2014-09-07T08:45:03.000Z</time>
      </trkpt>
      <trkpt lat="45.92562" lon="4.8564">
        <ele>287.60000610352</ele>
        <time>2014-09-07T08:45:12.000Z</time>
      </trkpt>
      <trkpt lat="45.92572" lon="4.85689">
        <ele>286.39999389648</ele>
        <time>2014-09-07T08:45:21.000Z</time>
      </trkpt>
      <trkpt lat="45.92589" lon="4.85744">
        <ele>286</ele>
        <time>2014-09-07T08:45:31.000Z</time>
      </trkpt>
      <trkpt lat="45.926" lon="4.85784">
        <ele>286</ele>
        <time>2014-09-07T08:45:38.000Z</time>
      </trkpt>
      <trkpt lat="45.92598" lon="4.85819">
        <ele>286.39999389648</ele>
        <time>2014-09-07T08:45:44.000Z</time>
      </trkpt>
      <trkpt lat="45.92588" lon="4.85824">
        <ele>286.39999389648</ele>
        <time>2014-09-07T08:45:47.000Z</time>
      </trkpt>
      <trkpt lat="45.9258" lon="4.85823">
        <ele>286.60000610352</ele>
        <time>2014-09-07T08:45:49.000Z</time>
      </trkpt>
      <trkpt lat="45.92539" lon="4.85821">
        <ele>287.60000610352</ele>
        <time>2014-09-07T08:45:59.000Z</time>
      </trkpt>
      <trkpt lat="45.92507" lon="4.8582">
        <ele>289.20001220703</ele>
        <time>2014-09-07T08:46:07.000Z</time>
      </trkpt>
      <trkpt lat="45.92474" lon="4.85818">
        <ele>290</ele>
        <time>2014-09-07T08:46:16.000Z</time>
      </trkpt>
      <trkpt lat="45.92442" lon="4.85817">
        <ele>291.20001220703</ele>
        <time>2014-09-07T08:46:25.000Z</time>
      </trkpt>
      <trkpt lat="45.92407" lon="4.85816">
        <ele>292.60000610352</ele>
        <time>2014-09-07T08:46:36.000Z</time>
      </trkpt>
      <trkpt lat="45.92374" lon="4.85815">
        <ele>293.39999389648</ele>
        <time>2014-09-07T08:46:47.000Z</time>
      </trkpt>
      <trkpt lat="45.92349" lon="4.85815">
        <ele>293.20001220703</ele>
        <time>2014-09-07T08:46:54.000Z</time>
      </trkpt>
      <trkpt lat="45.92332" lon="4.85814">
        <ele>292.79998779297</ele>
        <time>2014-09-07T08:46:59.000Z</time>
      </trkpt>
      <trkpt lat="45.92313" lon="4.8581">
        <ele>292.79998779297</ele>
        <time>2014-09-07T08:47:04.000Z</time>
      </trkpt>
      <trkpt lat="45.92305" lon="4.85792">
        <ele>292</ele>
        <time>2014-09-07T08:47:08.000Z</time>
      </trkpt>
      <trkpt lat="45.92304" lon="4.85785">
        <ele>291.79998779297</ele>
        <time>2014-09-07T08:47:09.000Z</time>
      </trkpt>
      <trkpt lat="45.92306" lon="4.85762">
        <ele>291</ele>
        <time>2014-09-07T08:47:12.000Z</time>
      </trkpt>
      <trkpt lat="45.92304" lon="4.85705">
        <ele>288.79998779297</ele>
        <time>2014-09-07T08:47:18.000Z</time>
      </trkpt>
      <trkpt lat="45.92303" lon="4.85633">
        <ele>285.60000610352</ele>
        <time>2014-09-07T08:47:25.000Z</time>
      </trkpt>
      <trkpt lat="45.92303" lon="4.85623">
        <ele>285</ele>
        <time>2014-09-07T08:47:26.000Z</time>
      </trkpt>
      <trkpt lat="45.92294" lon="4.856">
        <ele>284.20001220703</ele>
        <time>2014-09-07T08:47:29.000Z</time>
      </trkpt>
      <trkpt lat="45.92288" lon="4.85596">
        <ele>284</ele>
        <time>2014-09-07T08:47:30.000Z</time>
      </trkpt>
      <trkpt lat="45.92243" lon="4.85571">
        <ele>283.20001220703</ele>
        <time>2014-09-07T08:47:37.000Z</time>
      </trkpt>
      <trkpt lat="45.922" lon="4.85557">
        <ele>282.60000610352</ele>
        <time>2014-09-07T08:47:43.000Z</time>
      </trkpt>
      <trkpt lat="45.92137" lon="4.8555">
        <ele>281.79998779297</ele>
        <time>2014-09-07T08:47:51.000Z</time>
      </trkpt>
      <trkpt lat="45.92084" lon="4.85537">
        <ele>277.39999389648</ele>
        <time>2014-09-07T08:47:57.000Z</time>
      </trkpt>
      <trkpt lat="45.92024" lon="4.85528">
        <ele>272.79998779297</ele>
        <time>2014-09-07T08:48:03.000Z</time>
      </trkpt>
      <trkpt lat="45.9196" lon="4.85531">
        <ele>268</ele>
        <time>2014-09-07T08:48:09.000Z</time>
      </trkpt>
      <trkpt lat="45.91893" lon="4.85536">
        <ele>261.39999389648</ele>
        <time>2014-09-07T08:48:15.000Z</time>
      </trkpt>
      <trkpt lat="45.91833" lon="4.8555">
        <ele>257.60000610352</ele>
        <time>2014-09-07T08:48:20.000Z</time>
      </trkpt>
      <trkpt lat="45.91776" lon="4.85543">
        <ele>254.39999389648</ele>
        <time>2014-09-07T08:48:25.000Z</time>
      </trkpt>
      <trkpt lat="45.91731" lon="4.85542">
        <ele>252.19999694824</ele>
        <time>2014-09-07T08:48:30.000Z</time>
      </trkpt>
      <trkpt lat="45.91706" lon="4.85543">
        <ele>253</ele>
        <time>2014-09-07T08:48:34.000Z</time>
      </trkpt>
      <trkpt lat="45.91687" lon="4.85543">
        <ele>254</ele>
        <time>2014-09-07T08:48:39.000Z</time>
      </trkpt>
      <trkpt lat="45.91686" lon="4.85543">
        <ele>254</ele>
        <time>2014-09-07T08:48:42.000Z</time>
      </trkpt>
      <trkpt lat="45.91684" lon="4.85541">
        <ele>254</ele>
        <time>2014-09-07T08:50:19.000Z</time>
      </trkpt>
      <trkpt lat="45.91676" lon="4.85523">
        <ele>254</ele>
        <time>2014-09-07T08:50:24.000Z</time>
      </trkpt>
      <trkpt lat="45.91663" lon="4.85511">
        <ele>254.19999694824</ele>
        <time>2014-09-07T08:50:28.000Z</time>
      </trkpt>
      <trkpt lat="45.91649" lon="4.85512">
        <ele>255</ele>
        <time>2014-09-07T08:50:32.000Z</time>
      </trkpt>
      <trkpt lat="45.91634" lon="4.85514">
        <ele>255.39999389648</ele>
        <time>2014-09-07T08:50:37.000Z</time>
      </trkpt>
      <trkpt lat="45.91615" lon="4.85517">
        <ele>255.80000305176</ele>
        <time>2014-09-07T08:50:43.000Z</time>
      </trkpt>
      <trkpt lat="45.91585" lon="4.85522">
        <ele>256.20001220703</ele>
        <time>2014-09-07T08:50:51.000Z</time>
      </trkpt>
      <trkpt lat="45.91555" lon="4.85528">
        <ele>256.60000610352</ele>
        <time>2014-09-07T08:50:59.000Z</time>
      </trkpt>
      <trkpt lat="45.91541" lon="4.85531">
        <ele>256.20001220703</ele>
        <time>2014-09-07T08:51:02.000Z</time>
      </trkpt>
      <trkpt lat="45.9152" lon="4.85527">
        <ele>255.19999694824</ele>
        <time>2014-09-07T08:51:06.000Z</time>
      </trkpt>
      <trkpt lat="45.91499" lon="4.85511">
        <ele>254.19999694824</ele>
        <time>2014-09-07T08:51:10.000Z</time>
      </trkpt>
      <trkpt lat="45.91482" lon="4.85505">
        <ele>253.39999389648</ele>
        <time>2014-09-07T08:51:13.000Z</time>
      </trkpt>
      <trkpt lat="45.91465" lon="4.85513">
        <ele>252</ele>
        <time>2014-09-07T08:51:17.000Z</time>
      </trkpt>
      <trkpt lat="45.91459" lon="4.85535">
        <ele>251.60000610352</ele>
        <time>2014-09-07T08:51:20.000Z</time>
      </trkpt>
      <trkpt lat="45.9146" lon="4.85545">
        <ele>251.60000610352</ele>
        <time>2014-09-07T08:51:21.000Z</time>
      </trkpt>
      <trkpt lat="45.91454" lon="4.85587">
        <ele>250</ele>
        <time>2014-09-07T08:51:26.000Z</time>
      </trkpt>
      <trkpt lat="45.91433" lon="4.85602">
        <ele>247.39999389648</ele>
        <time>2014-09-07T08:51:29.000Z</time>
      </trkpt>
      <trkpt lat="45.91398" lon="4.85613">
        <ele>243.19999694824</ele>
        <time>2014-09-07T08:51:33.000Z</time>
      </trkpt>
      <trkpt lat="45.91368" lon="4.85631">
        <ele>242.80000305176</ele>
        <time>2014-09-07T08:51:38.000Z</time>
      </trkpt>
      <trkpt lat="45.91359" lon="4.85648">
        <ele>243</ele>
        <time>2014-09-07T08:51:43.000Z</time>
      </trkpt>
      <trkpt lat="45.91358" lon="4.85656">
        <ele>242.80000305176</ele>
        <time>2014-09-07T08:51:45.000Z</time>
      </trkpt>
      <trkpt lat="45.9136" lon="4.85684">
        <ele>242</ele>
        <time>2014-09-07T08:51:52.000Z</time>
      </trkpt>
      <trkpt lat="45.91367" lon="4.85718">
        <ele>241.80000305176</ele>
        <time>2014-09-07T08:52:02.000Z</time>
      </trkpt>
      <trkpt lat="45.91375" lon="4.85748">
        <ele>242.39999389648</ele>
        <time>2014-09-07T08:52:11.000Z</time>
      </trkpt>
      <trkpt lat="45.91382" lon="4.85776">
        <ele>243</ele>
        <time>2014-09-07T08:52:19.000Z</time>
      </trkpt>
      <trkpt lat="45.91384" lon="4.858">
        <ele>243.39999389648</ele>
        <time>2014-09-07T08:52:26.000Z</time>
      </trkpt>
      <trkpt lat="45.91384" lon="4.8583">
        <ele>244.19999694824</ele>
        <time>2014-09-07T08:52:34.000Z</time>
      </trkpt>
      <trkpt lat="45.91383" lon="4.85859">
        <ele>244.80000305176</ele>
        <time>2014-09-07T08:52:42.000Z</time>
      </trkpt>
      <trkpt lat="45.91382" lon="4.85893">
        <ele>245.39999389648</ele>
        <time>2014-09-07T08:52:51.000Z</time>
      </trkpt>
      <trkpt lat="45.91382" lon="4.85929">
        <ele>245.80000305176</ele>
        <time>2014-09-07T08:53:00.000Z</time>
      </trkpt>
      <trkpt lat="45.91383" lon="4.85959">
        <ele>246.39999389648</ele>
        <time>2014-09-07T08:53:07.000Z</time>
      </trkpt>
      <trkpt lat="45.91381" lon="4.85992">
        <ele>246.80000305176</ele>
        <time>2014-09-07T08:53:15.000Z</time>
      </trkpt>
      <trkpt lat="45.91378" lon="4.86024">
        <ele>247.19999694824</ele>
        <time>2014-09-07T08:53:22.000Z</time>
      </trkpt>
      <trkpt lat="45.91372" lon="4.86066">
        <ele>248.80000305176</ele>
        <time>2014-09-07T08:53:30.000Z</time>
      </trkpt>
      <trkpt lat="45.91362" lon="4.86107">
        <ele>250.19999694824</ele>
        <time>2014-09-07T08:53:38.000Z</time>
      </trkpt>
      <trkpt lat="45.91344" lon="4.86147">
        <ele>250.60000610352</ele>
        <time>2014-09-07T08:53:47.000Z</time>
      </trkpt>
      <trkpt lat="45.91321" lon="4.86196">
        <ele>251.39999389648</ele>
        <time>2014-09-07T08:53:58.000Z</time>
      </trkpt>
      <trkpt lat="45.91301" lon="4.8624">
        <ele>252.60000610352</ele>
        <time>2014-09-07T08:54:08.000Z</time>
      </trkpt>
      <trkpt lat="45.91282" lon="4.86276">
        <ele>254.39999389648</ele>
        <time>2014-09-07T08:54:17.000Z</time>
      </trkpt>
      <trkpt lat="45.91263" lon="4.86306">
        <ele>254.19999694824</ele>
        <time>2014-09-07T08:54:25.000Z</time>
      </trkpt>
      <trkpt lat="45.91247" lon="4.86331">
        <ele>254</ele>
        <time>2014-09-07T08:54:32.000Z</time>
      </trkpt>
      <trkpt lat="45.91233" lon="4.86354">
        <ele>253.39999389648</ele>
        <time>2014-09-07T08:54:39.000Z</time>
      </trkpt>
      <trkpt lat="45.9122" lon="4.86377">
        <ele>253.60000610352</ele>
        <time>2014-09-07T08:54:46.000Z</time>
      </trkpt>
      <trkpt lat="45.9121" lon="4.86402">
        <ele>255.19999694824</ele>
        <time>2014-09-07T08:54:53.000Z</time>
      </trkpt>
      <trkpt lat="45.912" lon="4.86435">
        <ele>256.39999389648</ele>
        <time>2014-09-07T08:55:01.000Z</time>
      </trkpt>
      <trkpt lat="45.91192" lon="4.86465">
        <ele>255</ele>
        <time>2014-09-07T08:55:08.000Z</time>
      </trkpt>
      <trkpt lat="45.91179" lon="4.86496">
        <ele>256</ele>
        <time>2014-09-07T08:55:16.000Z</time>
      </trkpt>
      <trkpt lat="45.91159" lon="4.86518">
        <ele>256</ele>
        <time>2014-09-07T08:55:24.000Z</time>
      </trkpt>
      <trkpt lat="45.91135" lon="4.86537">
        <ele>256.39999389648</ele>
        <time>2014-09-07T08:55:33.000Z</time>
      </trkpt>
      <trkpt lat="45.91114" lon="4.86552">
        <ele>257.79998779297</ele>
        <time>2014-09-07T08:55:41.000Z</time>
      </trkpt>
      <trkpt lat="45.91095" lon="4.86562">
        <ele>259.20001220703</ele>
        <time>2014-09-07T08:55:48.000Z</time>
      </trkpt>
      <trkpt lat="45.91081" lon="4.86559">
        <ele>260</ele>
        <time>2014-09-07T08:55:53.000Z</time>
      </trkpt>
      <trkpt lat="45.91065" lon="4.86544">
        <ele>260.60000610352</ele>
        <time>2014-09-07T08:56:00.000Z</time>
      </trkpt>
      <trkpt lat="45.91043" lon="4.86527">
        <ele>262.20001220703</ele>
        <time>2014-09-07T08:56:09.000Z</time>
      </trkpt>
      <trkpt lat="45.91023" lon="4.86512">
        <ele>263.60000610352</ele>
        <time>2014-09-07T08:56:17.000Z</time>
      </trkpt>
      <trkpt lat="45.91003" lon="4.86499">
        <ele>264.79998779297</ele>
        <time>2014-09-07T08:56:25.000Z</time>
      </trkpt>
      <trkpt lat="45.90977" lon="4.86486">
        <ele>266.39999389648</ele>
        <time>2014-09-07T08:56:34.000Z</time>
      </trkpt>
      <trkpt lat="45.90947" lon="4.86473">
        <ele>266.60000610352</ele>
        <time>2014-09-07T08:56:44.000Z</time>
      </trkpt>
      <trkpt lat="45.9092" lon="4.8646">
        <ele>266.60000610352</ele>
        <time>2014-09-07T08:56:53.000Z</time>
      </trkpt>
      <trkpt lat="45.90886" lon="4.86441">
        <ele>266.79998779297</ele>
        <time>2014-09-07T08:57:05.000Z</time>
      </trkpt>
      <trkpt lat="45.90858" lon="4.86419">
        <ele>268.60000610352</ele>
        <time>2014-09-07T08:57:15.000Z</time>
      </trkpt>
      <trkpt lat="45.90843" lon="4.86398">
        <ele>270</ele>
        <time>2014-09-07T08:57:22.000Z</time>
      </trkpt>
      <trkpt lat="45.90825" lon="4.86388">
        <ele>270.79998779297</ele>
        <time>2014-09-07T08:57:28.000Z</time>
      </trkpt>
      <trkpt lat="45.90801" lon="4.86383">
        <ele>271.39999389648</ele>
        <time>2014-09-07T08:57:36.000Z</time>
      </trkpt>
      <trkpt lat="45.90776" lon="4.86381">
        <ele>271.20001220703</ele>
        <time>2014-09-07T08:57:45.000Z</time>
      </trkpt>
      <trkpt lat="45.90773" lon="4.86377">
        <ele>271.39999389648</ele>
        <time>2014-09-07T08:57:47.000Z</time>
      </trkpt>
      <trkpt lat="45.90773" lon="4.86359">
        <ele>272.60000610352</ele>
        <time>2014-09-07T08:57:53.000Z</time>
      </trkpt>
      <trkpt lat="45.90777" lon="4.8632">
        <ele>274.60000610352</ele>
        <time>2014-09-07T08:58:04.000Z</time>
      </trkpt>
      <trkpt lat="45.90779" lon="4.863">
        <ele>275.20001220703</ele>
        <time>2014-09-07T08:58:10.000Z</time>
      </trkpt>
      <trkpt lat="45.90781" lon="4.86273">
        <ele>276.79998779297</ele>
        <time>2014-09-07T08:58:18.000Z</time>
      </trkpt>
      <trkpt lat="45.90785" lon="4.86246">
        <ele>278</ele>
        <time>2014-09-07T08:58:27.000Z</time>
      </trkpt>
      <trkpt lat="45.90787" lon="4.86224">
        <ele>278.60000610352</ele>
        <time>2014-09-07T08:58:34.000Z</time>
      </trkpt>
      <trkpt lat="45.90791" lon="4.86197">
        <ele>279.20001220703</ele>
        <time>2014-09-07T08:58:43.000Z</time>
      </trkpt>
      <trkpt lat="45.90795" lon="4.86169">
        <ele>280</ele>
        <time>2014-09-07T08:58:52.000Z</time>
      </trkpt>
      <trkpt lat="45.90797" lon="4.86142">
        <ele>280.79998779297</ele>
        <time>2014-09-07T08:59:01.000Z</time>
      </trkpt>
      <trkpt lat="45.908" lon="4.86118">
        <ele>281.20001220703</ele>
        <time>2014-09-07T08:59:09.000Z</time>
      </trkpt>
      <trkpt lat="45.90802" lon="4.86098">
        <ele>280.79998779297</ele>
        <time>2014-09-07T08:59:16.000Z</time>
      </trkpt>
      <trkpt lat="45.90805" lon="4.86077">
        <ele>280.39999389648</ele>
        <time>2014-09-07T08:59:22.000Z</time>
      </trkpt>
      <trkpt lat="45.9081" lon="4.86044">
        <ele>280</ele>
        <time>2014-09-07T08:59:28.000Z</time>
      </trkpt>
      <trkpt lat="45.90813" lon="4.86023">
        <ele>279.20001220703</ele>
        <time>2014-09-07T08:59:31.000Z</time>
      </trkpt>
      <trkpt lat="45.90803" lon="4.85995">
        <ele>278.60000610352</ele>
        <time>2014-09-07T08:59:36.000Z</time>
      </trkpt>
      <trkpt lat="45.90796" lon="4.85991">
        <ele>278.79998779297</ele>
        <time>2014-09-07T08:59:38.000Z</time>
      </trkpt>
      <trkpt lat="45.90762" lon="4.85978">
        <ele>280</ele>
        <time>2014-09-07T08:59:47.000Z</time>
      </trkpt>
      <trkpt lat="45.90759" lon="4.85976">
        <ele>280</ele>
        <time>2014-09-07T08:59:48.000Z</time>
      </trkpt>
      <trkpt lat="45.9074" lon="4.85948">
        <ele>280.39999389648</ele>
        <time>2014-09-07T08:59:56.000Z</time>
      </trkpt>
      <trkpt lat="45.90717" lon="4.8592">
        <ele>281.79998779297</ele>
        <time>2014-09-07T09:00:05.000Z</time>
      </trkpt>
      <trkpt lat="45.90713" lon="4.85915">
        <ele>282.20001220703</ele>
        <time>2014-09-07T09:00:07.000Z</time>
      </trkpt>
      <trkpt lat="45.907" lon="4.85922">
        <ele>282.79998779297</ele>
        <time>2014-09-07T09:00:12.000Z</time>
      </trkpt>
      <trkpt lat="45.90696" lon="4.85931">
        <ele>283</ele>
        <time>2014-09-07T09:00:15.000Z</time>
      </trkpt>
      <trkpt lat="45.90692" lon="4.85946">
        <ele>283.20001220703</ele>
        <time>2014-09-07T09:00:22.000Z</time>
      </trkpt>
      <trkpt lat="45.90692" lon="4.85946">
        <ele>283.20001220703</ele>
        <time>2014-09-07T09:00:24.000Z</time>
      </trkpt>
      <trkpt lat="45.90688" lon="4.85957">
        <ele>283.60000610352</ele>
        <time>2014-09-07T09:02:05.000Z</time>
      </trkpt>
      <trkpt lat="45.90675" lon="4.85981">
        <ele>284.79998779297</ele>
        <time>2014-09-07T09:02:11.000Z</time>
      </trkpt>
      <trkpt lat="45.90661" lon="4.86012">
        <ele>284.39999389648</ele>
        <time>2014-09-07T09:02:15.000Z</time>
      </trkpt>
      <trkpt lat="45.90625" lon="4.86081">
        <ele>284</ele>
        <time>2014-09-07T09:02:23.000Z</time>
      </trkpt>
      <trkpt lat="45.906" lon="4.86131">
        <ele>283.60000610352</ele>
        <time>2014-09-07T09:02:29.000Z</time>
      </trkpt>
      <trkpt lat="45.90577" lon="4.86175">
        <ele>282.60000610352</ele>
        <time>2014-09-07T09:02:35.000Z</time>
      </trkpt>
      <trkpt lat="45.90569" lon="4.86188">
        <ele>282.20001220703</ele>
        <time>2014-09-07T09:02:37.000Z</time>
      </trkpt>
      <trkpt lat="45.90534" lon="4.86257">
        <ele>281</ele>
        <time>2014-09-07T09:02:47.000Z</time>
      </trkpt>
      <trkpt lat="45.90515" lon="4.86277">
        <ele>281.20001220703</ele>
        <time>2014-09-07T09:02:51.000Z</time>
      </trkpt>
      <trkpt lat="45.90498" lon="4.86279">
        <ele>281.60000610352</ele>
        <time>2014-09-07T09:02:54.000Z</time>
      </trkpt>
      <trkpt lat="45.90446" lon="4.86277">
        <ele>282.20001220703</ele>
        <time>2014-09-07T09:03:03.000Z</time>
      </trkpt>
      <trkpt lat="45.90397" lon="4.86274">
        <ele>282.20001220703</ele>
        <time>2014-09-07T09:03:12.000Z</time>
      </trkpt>
      <trkpt lat="45.90348" lon="4.86272">
        <ele>281.60000610352</ele>
        <time>2014-09-07T09:03:21.000Z</time>
      </trkpt>
      <trkpt lat="45.9031" lon="4.86271">
        <ele>280.79998779297</ele>
        <time>2014-09-07T09:03:28.000Z</time>
      </trkpt>
      <trkpt lat="45.90275" lon="4.8627">
        <ele>280</ele>
        <time>2014-09-07T09:03:35.000Z</time>
      </trkpt>
      <trkpt lat="45.90244" lon="4.86266">
        <ele>279.79998779297</ele>
        <time>2014-09-07T09:03:41.000Z</time>
      </trkpt>
      <trkpt lat="45.90197" lon="4.8625">
        <ele>279</ele>
        <time>2014-09-07T09:03:50.000Z</time>
      </trkpt>
      <trkpt lat="45.9016" lon="4.86238">
        <ele>278.20001220703</ele>
        <time>2014-09-07T09:03:57.000Z</time>
      </trkpt>
      <trkpt lat="45.90134" lon="4.86229">
        <ele>277.60000610352</ele>
        <time>2014-09-07T09:04:02.000Z</time>
      </trkpt>
      <trkpt lat="45.90108" lon="4.86209">
        <ele>277.20001220703</ele>
        <time>2014-09-07T09:04:08.000Z</time>
      </trkpt>
      <trkpt lat="45.90102" lon="4.86203">
        <ele>277.20001220703</ele>
        <time>2014-09-07T09:04:10.000Z</time>
      </trkpt>
      <trkpt lat="45.90092" lon="4.86204">
        <ele>277</ele>
        <time>2014-09-07T09:04:14.000Z</time>
      </trkpt>
      <trkpt lat="45.90078" lon="4.86213">
        <ele>276.39999389648</ele>
        <time>2014-09-07T09:04:21.000Z</time>
      </trkpt>
      <trkpt lat="45.90062" lon="4.86213">
        <ele>276</ele>
        <time>2014-09-07T09:04:29.000Z</time>
      </trkpt>
      <trkpt lat="45.90049" lon="4.8621">
        <ele>276.60000610352</ele>
        <time>2014-09-07T09:04:36.000Z</time>
      </trkpt>
      <trkpt lat="45.90039" lon="4.86211">
        <ele>277.39999389648</ele>
        <time>2014-09-07T09:04:42.000Z</time>
      </trkpt>
      <trkpt lat="45.90027" lon="4.8621">
        <ele>278.20001220703</ele>
        <time>2014-09-07T09:04:48.000Z</time>
      </trkpt>
      <trkpt lat="45.90025" lon="4.862">
        <ele>278.39999389648</ele>
        <time>2014-09-07T09:04:52.000Z</time>
      </trkpt>
      <trkpt lat="45.9002" lon="4.86172">
        <ele>279.39999389648</ele>
        <time>2014-09-07T09:05:01.000Z</time>
      </trkpt>
      <trkpt lat="45.90017" lon="4.86148">
        <ele>280.20001220703</ele>
        <time>2014-09-07T09:05:09.000Z</time>
      </trkpt>
      <trkpt lat="45.90011" lon="4.86128">
        <ele>281.20001220703</ele>
        <time>2014-09-07T09:05:16.000Z</time>
      </trkpt>
      <trkpt lat="45.90008" lon="4.86103">
        <ele>281.60000610352</ele>
        <time>2014-09-07T09:05:24.000Z</time>
      </trkpt>
      <trkpt lat="45.90001" lon="4.86074">
        <ele>282</ele>
        <time>2014-09-07T09:05:32.000Z</time>
      </trkpt>
      <trkpt lat="45.89997" lon="4.86054">
        <ele>282.39999389648</ele>
        <time>2014-09-07T09:05:38.000Z</time>
      </trkpt>
      <trkpt lat="45.89994" lon="4.86039">
        <ele>282.79998779297</ele>
        <time>2014-09-07T09:05:43.000Z</time>
      </trkpt>
      <trkpt lat="45.89992" lon="4.86025">
        <ele>282.79998779297</ele>
        <time>2014-09-07T09:05:48.000Z</time>
      </trkpt>
      <trkpt lat="45.89986" lon="4.86001">
        <ele>283.20001220703</ele>
        <time>2014-09-07T09:05:55.000Z</time>
      </trkpt>
      <trkpt lat="45.89979" lon="4.85982">
        <ele>283.60000610352</ele>
        <time>2014-09-07T09:06:01.000Z</time>
      </trkpt>
      <trkpt lat="45.89972" lon="4.85964">
        <ele>284</ele>
        <time>2014-09-07T09:06:07.000Z</time>
      </trkpt>
      <trkpt lat="45.89963" lon="4.85946">
        <ele>284.20001220703</ele>
        <time>2014-09-07T09:06:13.000Z</time>
      </trkpt>
      <trkpt lat="45.89953" lon="4.8593">
        <ele>284.60000610352</ele>
        <time>2014-09-07T09:06:19.000Z</time>
      </trkpt>
      <trkpt lat="45.89951" lon="4.85928">
        <ele>284.60000610352</ele>
        <time>2014-09-07T09:06:20.000Z</time>
      </trkpt>
      <trkpt lat="45.89944" lon="4.85933">
        <ele>285</ele>
        <time>2014-09-07T09:06:26.000Z</time>
      </trkpt>
      <trkpt lat="45.8994" lon="4.85936">
        <ele>285.20001220703</ele>
        <time>2014-09-07T09:06:30.000Z</time>
      </trkpt>
      <trkpt lat="45.89943" lon="4.85935">
        <ele>285</ele>
        <time>2014-09-07T09:06:33.000Z</time>
      </trkpt>
      <trkpt lat="45.89946" lon="4.85926">
        <ele>284.79998779297</ele>
        <time>2014-09-07T09:06:37.000Z</time>
      </trkpt>
      <trkpt lat="45.89949" lon="4.85914">
        <ele>285</ele>
        <time>2014-09-07T09:06:42.000Z</time>
      </trkpt>
      <trkpt lat="45.89944" lon="4.85915">
        <ele>285</ele>
        <time>2014-09-07T09:06:46.000Z</time>
      </trkpt>
      <trkpt lat="45.89943" lon="4.85918">
        <ele>285</ele>
        <time>2014-09-07T09:06:47.000Z</time>
      </trkpt>
      <trkpt lat="45.89935" lon="4.85939">
        <ele>285.60000610352</ele>
        <time>2014-09-07T09:06:54.000Z</time>
      </trkpt>
      <trkpt lat="45.89921" lon="4.85957">
        <ele>287.20001220703</ele>
        <time>2014-09-07T09:07:02.000Z</time>
      </trkpt>
      <trkpt lat="45.89907" lon="4.85971">
        <ele>288</ele>
        <time>2014-09-07T09:07:09.000Z</time>
      </trkpt>
      <trkpt lat="45.89889" lon="4.85991">
        <ele>289.79998779297</ele>
        <time>2014-09-07T09:07:18.000Z</time>
      </trkpt>
      <trkpt lat="45.89868" lon="4.86016">
        <ele>290.39999389648</ele>
        <time>2014-09-07T09:07:26.000Z</time>
      </trkpt>
      <trkpt lat="45.89856" lon="4.86038">
        <ele>291</ele>
        <time>2014-09-07T09:07:31.000Z</time>
      </trkpt>
      <trkpt lat="45.89852" lon="4.86049">
        <ele>290.79998779297</ele>
        <time>2014-09-07T09:07:36.000Z</time>
      </trkpt>
      <trkpt lat="45.89852" lon="4.86049">
        <ele>290.79998779297</ele>
        <time>2014-09-07T09:07:37.000Z</time>
      </trkpt>
      <trkpt lat="45.89848" lon="4.8606">
        <ele>290.60000610352</ele>
        <time>2014-09-07T09:08:13.000Z</time>
      </trkpt>
      <trkpt lat="45.89839" lon="4.86082">
        <ele>290.20001220703</ele>
        <time>2014-09-07T09:08:19.000Z</time>
      </trkpt>
      <trkpt lat="45.89824" lon="4.86118">
        <ele>289.79998779297</ele>
        <time>2014-09-07T09:08:27.000Z</time>
      </trkpt>
      <trkpt lat="45.8981" lon="4.86157">
        <ele>289</ele>
        <time>2014-09-07T09:08:34.000Z</time>
      </trkpt>
      <trkpt lat="45.89801" lon="4.86182">
        <ele>288.60000610352</ele>
        <time>2014-09-07T09:08:39.000Z</time>
      </trkpt>
      <trkpt lat="45.89793" lon="4.86204">
        <ele>288.39999389648</ele>
        <time>2014-09-07T09:08:44.000Z</time>
      </trkpt>
      <trkpt lat="45.89792" lon="4.86211">
        <ele>288.20001220703</ele>
        <time>2014-09-07T09:08:46.000Z</time>
      </trkpt>
      <trkpt lat="45.8981" lon="4.86234">
        <ele>287.39999389648</ele>
        <time>2014-09-07T09:08:52.000Z</time>
      </trkpt>
      <trkpt lat="45.89842" lon="4.86272">
        <ele>285.60000610352</ele>
        <time>2014-09-07T09:09:00.000Z</time>
      </trkpt>
      <trkpt lat="45.8987" lon="4.86311">
        <ele>284</ele>
        <time>2014-09-07T09:09:07.000Z</time>
      </trkpt>
      <trkpt lat="45.89882" lon="4.86348">
        <ele>283.39999389648</ele>
        <time>2014-09-07T09:09:12.000Z</time>
      </trkpt>
      <trkpt lat="45.89884" lon="4.86373">
        <ele>283.39999389648</ele>
        <time>2014-09-07T09:09:15.000Z</time>
      </trkpt>
      <trkpt lat="45.89883" lon="4.86449">
        <ele>283.39999389648</ele>
        <time>2014-09-07T09:09:24.000Z</time>
      </trkpt>
      <trkpt lat="45.89879" lon="4.8652">
        <ele>284.20001220703</ele>
        <time>2014-09-07T09:09:33.000Z</time>
      </trkpt>
      <trkpt lat="45.89874" lon="4.86579">
        <ele>284.20001220703</ele>
        <time>2014-09-07T09:09:41.000Z</time>
      </trkpt>
      <trkpt lat="45.89871" lon="4.86638">
        <ele>284.60000610352</ele>
        <time>2014-09-07T09:09:50.000Z</time>
      </trkpt>
      <trkpt lat="45.8987" lon="4.86664">
        <ele>285.20001220703</ele>
        <time>2014-09-07T09:09:56.000Z</time>
      </trkpt>
      <trkpt lat="45.8987" lon="4.86671">
        <ele>285.39999389648</ele>
        <time>2014-09-07T09:10:01.000Z</time>
      </trkpt>
      <trkpt lat="45.8987" lon="4.86671">
        <ele>285.39999389648</ele>
        <time>2014-09-07T09:10:02.000Z</time>
      </trkpt>
      <trkpt lat="45.8987" lon="4.86679">
        <ele>285.60000610352</ele>
        <time>2014-09-07T09:10:08.000Z</time>
      </trkpt>
      <trkpt lat="45.8987" lon="4.86681">
        <ele>285.60000610352</ele>
        <time>2014-09-07T09:10:09.000Z</time>
      </trkpt>
      <trkpt lat="45.8987" lon="4.86685">
        <ele>285.79998779297</ele>
        <time>2014-09-07T09:10:14.000Z</time>
      </trkpt>
      <trkpt lat="45.89869" lon="4.86712">
        <ele>285.79998779297</ele>
        <time>2014-09-07T09:10:40.000Z</time>
      </trkpt>
      <trkpt lat="45.8987" lon="4.86743">
        <ele>286.20001220703</ele>
        <time>2014-09-07T09:10:48.000Z</time>
      </trkpt>
      <trkpt lat="45.89867" lon="4.86779">
        <ele>286.79998779297</ele>
        <time>2014-09-07T09:10:56.000Z</time>
      </trkpt>
      <trkpt lat="45.89856" lon="4.86821">
        <ele>287</ele>
        <time>2014-09-07T09:11:05.000Z</time>
      </trkpt>
      <trkpt lat="45.89849" lon="4.86858">
        <ele>287.60000610352</ele>
        <time>2014-09-07T09:11:13.000Z</time>
      </trkpt>
      <trkpt lat="45.89845" lon="4.86907">
        <ele>289</ele>
        <time>2014-09-07T09:11:23.000Z</time>
      </trkpt>
      <trkpt lat="45.89853" lon="4.86937">
        <ele>289.20001220703</ele>
        <time>2014-09-07T09:11:29.000Z</time>
      </trkpt>
      <trkpt lat="45.89863" lon="4.8698">
        <ele>289.39999389648</ele>
        <time>2014-09-07T09:11:37.000Z</time>
      </trkpt>
      <trkpt lat="45.8987" lon="4.87013">
        <ele>289.20001220703</ele>
        <time>2014-09-07T09:11:43.000Z</time>
      </trkpt>
      <trkpt lat="45.89878" lon="4.87062">
        <ele>289.20001220703</ele>
        <time>2014-09-07T09:11:52.000Z</time>
      </trkpt>
      <trkpt lat="45.89887" lon="4.87114">
        <ele>289.79998779297</ele>
        <time>2014-09-07T09:12:02.000Z</time>
      </trkpt>
      <trkpt lat="45.89894" lon="4.8715">
        <ele>290</ele>
        <time>2014-09-07T09:12:09.000Z</time>
      </trkpt>
      <trkpt lat="45.89904" lon="4.87199">
        <ele>290</ele>
        <time>2014-09-07T09:12:18.000Z</time>
      </trkpt>
      <trkpt lat="45.89908" lon="4.87217">
        <ele>289.79998779297</ele>
        <time>2014-09-07T09:12:21.000Z</time>
      </trkpt>
      <trkpt lat="45.89918" lon="4.87265">
        <ele>289.60000610352</ele>
        <time>2014-09-07T09:12:29.000Z</time>
      </trkpt>
      <trkpt lat="45.89929" lon="4.87321">
        <ele>289.60000610352</ele>
        <time>2014-09-07T09:12:38.000Z</time>
      </trkpt>
      <trkpt lat="45.89936" lon="4.87353">
        <ele>289.39999389648</ele>
        <time>2014-09-07T09:12:43.000Z</time>
      </trkpt>
      <trkpt lat="45.89946" lon="4.87412">
        <ele>289.39999389648</ele>
        <time>2014-09-07T09:12:53.000Z</time>
      </trkpt>
      <trkpt lat="45.8995" lon="4.87447">
        <ele>289.20001220703</ele>
        <time>2014-09-07T09:12:59.000Z</time>
      </trkpt>
      <trkpt lat="45.8995" lon="4.8748">
        <ele>289</ele>
        <time>2014-09-07T09:13:05.000Z</time>
      </trkpt>
      <trkpt lat="45.89939" lon="4.87497">
        <ele>289</ele>
        <time>2014-09-07T09:13:09.000Z</time>
      </trkpt>
      <trkpt lat="45.8993" lon="4.87502">
        <ele>289</ele>
        <time>2014-09-07T09:13:11.000Z</time>
      </trkpt>
      <trkpt lat="45.89888" lon="4.87516">
        <ele>289.39999389648</ele>
        <time>2014-09-07T09:13:19.000Z</time>
      </trkpt>
      <trkpt lat="45.89842" lon="4.87527">
        <ele>289.79998779297</ele>
        <time>2014-09-07T09:13:27.000Z</time>
      </trkpt>
      <trkpt lat="45.89801" lon="4.87538">
        <ele>289.79998779297</ele>
        <time>2014-09-07T09:13:33.000Z</time>
      </trkpt>
      <trkpt lat="45.89763" lon="4.87551">
        <ele>288.39999389648</ele>
        <time>2014-09-07T09:13:37.000Z</time>
      </trkpt>
      <trkpt lat="45.8973" lon="4.87558">
        <ele>287</ele>
        <time>2014-09-07T09:13:40.000Z</time>
      </trkpt>
      <trkpt lat="45.89668" lon="4.87553">
        <ele>281.79998779297</ele>
        <time>2014-09-07T09:13:45.000Z</time>
      </trkpt>
      <trkpt lat="45.89618" lon="4.87564">
        <ele>275.39999389648</ele>
        <time>2014-09-07T09:13:49.000Z</time>
      </trkpt>
      <trkpt lat="45.89597" lon="4.87577">
        <ele>271.60000610352</ele>
        <time>2014-09-07T09:13:51.000Z</time>
      </trkpt>
      <trkpt lat="45.89552" lon="4.87611">
        <ele>269.60000610352</ele>
        <time>2014-09-07T09:13:56.000Z</time>
      </trkpt>
      <trkpt lat="45.89526" lon="4.87626">
        <ele>270.60000610352</ele>
        <time>2014-09-07T09:14:00.000Z</time>
      </trkpt>
      <trkpt lat="45.89515" lon="4.8763">
        <ele>271</ele>
        <time>2014-09-07T09:14:02.000Z</time>
      </trkpt>
      <trkpt lat="45.89497" lon="4.87629">
        <ele>271</ele>
        <time>2014-09-07T09:14:06.000Z</time>
      </trkpt>
      <trkpt lat="45.89467" lon="4.87617">
        <ele>271</ele>
        <time>2014-09-07T09:14:14.000Z</time>
      </trkpt>
      <trkpt lat="45.89443" lon="4.876">
        <ele>271</ele>
        <time>2014-09-07T09:14:21.000Z</time>
      </trkpt>
      <trkpt lat="45.89407" lon="4.87576">
        <ele>271.20001220703</ele>
        <time>2014-09-07T09:14:31.000Z</time>
      </trkpt>
      <trkpt lat="45.89382" lon="4.87558">
        <ele>271.39999389648</ele>
        <time>2014-09-07T09:14:39.000Z</time>
      </trkpt>
      <trkpt lat="45.89364" lon="4.8755">
        <ele>272</ele>
        <time>2014-09-07T09:14:44.000Z</time>
      </trkpt>
      <trkpt lat="45.89338" lon="4.87544">
        <ele>273.39999389648</ele>
        <time>2014-09-07T09:14:50.000Z</time>
      </trkpt>
      <trkpt lat="45.89334" lon="4.87543">
        <ele>273.60000610352</ele>
        <time>2014-09-07T09:14:51.000Z</time>
      </trkpt>
      <trkpt lat="45.89304" lon="4.87521">
        <ele>273.20001220703</ele>
        <time>2014-09-07T09:14:58.000Z</time>
      </trkpt>
      <trkpt lat="45.89277" lon="4.87493">
        <ele>269</ele>
        <time>2014-09-07T09:15:05.000Z</time>
      </trkpt>
      <trkpt lat="45.89246" lon="4.87462">
        <ele>264</ele>
        <time>2014-09-07T09:15:13.000Z</time>
      </trkpt>
      <trkpt lat="45.89224" lon="4.8744">
        <ele>260.60000610352</ele>
        <time>2014-09-07T09:15:19.000Z</time>
      </trkpt>
      <trkpt lat="45.89192" lon="4.87408">
        <ele>258.79998779297</ele>
        <time>2014-09-07T09:15:27.000Z</time>
      </trkpt>
      <trkpt lat="45.89164" lon="4.8738">
        <ele>257</ele>
        <time>2014-09-07T09:15:33.000Z</time>
      </trkpt>
      <trkpt lat="45.89135" lon="4.87346">
        <ele>256.60000610352</ele>
        <time>2014-09-07T09:15:38.000Z</time>
      </trkpt>
      <trkpt lat="45.89089" lon="4.8729">
        <ele>257.39999389648</ele>
        <time>2014-09-07T09:15:45.000Z</time>
      </trkpt>
      <trkpt lat="45.89078" lon="4.87275">
        <ele>257.79998779297</ele>
        <time>2014-09-07T09:15:47.000Z</time>
      </trkpt>
      <trkpt lat="45.89052" lon="4.87242">
        <ele>258.60000610352</ele>
        <time>2014-09-07T09:15:53.000Z</time>
      </trkpt>
      <trkpt lat="45.89046" lon="4.87231">
        <ele>258.79998779297</ele>
        <time>2014-09-07T09:15:55.000Z</time>
      </trkpt>
      <trkpt lat="45.89027" lon="4.87217">
        <ele>259.60000610352</ele>
        <time>2014-09-07T09:16:00.000Z</time>
      </trkpt>
      <trkpt lat="45.89021" lon="4.87216">
        <ele>259.79998779297</ele>
        <time>2014-09-07T09:16:02.000Z</time>
      </trkpt>
      <trkpt lat="45.88996" lon="4.87219">
        <ele>261</ele>
        <time>2014-09-07T09:16:11.000Z</time>
      </trkpt>
      <trkpt lat="45.8898" lon="4.87222">
        <ele>262</ele>
        <time>2014-09-07T09:16:18.000Z</time>
      </trkpt>
      <trkpt lat="45.88965" lon="4.87224">
        <ele>263.20001220703</ele>
        <time>2014-09-07T09:16:25.000Z</time>
      </trkpt>
      <trkpt lat="45.88945" lon="4.87227">
        <ele>264.39999389648</ele>
        <time>2014-09-07T09:16:35.000Z</time>
      </trkpt>
      <trkpt lat="45.88925" lon="4.8723">
        <ele>265.79998779297</ele>
        <time>2014-09-07T09:16:44.000Z</time>
      </trkpt>
      <trkpt lat="45.88906" lon="4.87233">
        <ele>267</ele>
        <time>2014-09-07T09:16:52.000Z</time>
      </trkpt>
      <trkpt lat="45.88888" lon="4.87236">
        <ele>268.20001220703</ele>
        <time>2014-09-07T09:16:59.000Z</time>
      </trkpt>
      <trkpt lat="45.88867" lon="4.87239">
        <ele>268.79998779297</ele>
        <time>2014-09-07T09:17:06.000Z</time>
      </trkpt>
      <trkpt lat="45.88837" lon="4.87243">
        <ele>269.39999389648</ele>
        <time>2014-09-07T09:17:15.000Z</time>
      </trkpt>
      <trkpt lat="45.88807" lon="4.87249">
        <ele>269</ele>
        <time>2014-09-07T09:17:24.000Z</time>
      </trkpt>
      <trkpt lat="45.88781" lon="4.87254">
        <ele>269.39999389648</ele>
        <time>2014-09-07T09:17:32.000Z</time>
      </trkpt>
      <trkpt lat="45.88762" lon="4.87257">
        <ele>269.60000610352</ele>
        <time>2014-09-07T09:17:38.000Z</time>
      </trkpt>
      <trkpt lat="45.88744" lon="4.87261">
        <ele>270.20001220703</ele>
        <time>2014-09-07T09:17:44.000Z</time>
      </trkpt>
      <trkpt lat="45.88721" lon="4.87266">
        <ele>271</ele>
        <time>2014-09-07T09:17:53.000Z</time>
      </trkpt>
      <trkpt lat="45.88706" lon="4.87261">
        <ele>272.20001220703</ele>
        <time>2014-09-07T09:18:00.000Z</time>
      </trkpt>
      <trkpt lat="45.88691" lon="4.87246">
        <ele>273.20001220703</ele>
        <time>2014-09-07T09:18:09.000Z</time>
      </trkpt>
      <trkpt lat="45.88681" lon="4.87239">
        <ele>274</ele>
        <time>2014-09-07T09:18:15.000Z</time>
      </trkpt>
      <trkpt lat="45.88668" lon="4.87237">
        <ele>275.20001220703</ele>
        <time>2014-09-07T09:18:22.000Z</time>
      </trkpt>
      <trkpt lat="45.88655" lon="4.8724">
        <ele>276.79998779297</ele>
        <time>2014-09-07T09:18:29.000Z</time>
      </trkpt>
      <trkpt lat="45.88641" lon="4.87244">
        <ele>278.60000610352</ele>
        <time>2014-09-07T09:18:37.000Z</time>
      </trkpt>
      <trkpt lat="45.88628" lon="4.87251">
        <ele>280.60000610352</ele>
        <time>2014-09-07T09:18:45.000Z</time>
      </trkpt>
      <trkpt lat="45.88612" lon="4.87261">
        <ele>283</ele>
        <time>2014-09-07T09:18:53.000Z</time>
      </trkpt>
      <trkpt lat="45.88591" lon="4.87268">
        <ele>284.79998779297</ele>
        <time>2014-09-07T09:19:01.000Z</time>
      </trkpt>
      <trkpt lat="45.88573" lon="4.87264">
        <ele>286.39999389648</ele>
        <time>2014-09-07T09:19:07.000Z</time>
      </trkpt>
      <trkpt lat="45.88545" lon="4.8725">
        <ele>288.20001220703</ele>
        <time>2014-09-07T09:19:16.000Z</time>
      </trkpt>
      <trkpt lat="45.88529" lon="4.87232">
        <ele>289</ele>
        <time>2014-09-07T09:19:22.000Z</time>
      </trkpt>
      <trkpt lat="45.88519" lon="4.8721">
        <ele>289.39999389648</ele>
        <time>2014-09-07T09:19:28.000Z</time>
      </trkpt>
      <trkpt lat="45.88502" lon="4.87173">
        <ele>291</ele>
        <time>2014-09-07T09:19:36.000Z</time>
      </trkpt>
      <trkpt lat="45.88491" lon="4.87135">
        <ele>292.79998779297</ele>
        <time>2014-09-07T09:19:43.000Z</time>
      </trkpt>
      <trkpt lat="45.88483" lon="4.87092">
        <ele>294.39999389648</ele>
        <time>2014-09-07T09:19:51.000Z</time>
      </trkpt>
      <trkpt lat="45.8847" lon="4.8707">
        <ele>295.20001220703</ele>
        <time>2014-09-07T09:19:56.000Z</time>
      </trkpt>
      <trkpt lat="45.88448" lon="4.87047">
        <ele>295.79998779297</ele>
        <time>2014-09-07T09:20:03.000Z</time>
      </trkpt>
      <trkpt lat="45.88429" lon="4.87023">
        <ele>296</ele>
        <time>2014-09-07T09:20:10.000Z</time>
      </trkpt>
      <trkpt lat="45.88407" lon="4.86996">
        <ele>296</ele>
        <time>2014-09-07T09:20:18.000Z</time>
      </trkpt>
      <trkpt lat="45.88384" lon="4.86972">
        <ele>296</ele>
        <time>2014-09-07T09:20:25.000Z</time>
      </trkpt>
      <trkpt lat="45.88376" lon="4.86966">
        <ele>296</ele>
        <time>2014-09-07T09:20:27.000Z</time>
      </trkpt>
      <trkpt lat="45.88349" lon="4.86963">
        <ele>296</ele>
        <time>2014-09-07T09:20:33.000Z</time>
      </trkpt>
      <trkpt lat="45.88312" lon="4.86967">
        <ele>296.20001220703</ele>
        <time>2014-09-07T09:20:41.000Z</time>
      </trkpt>
      <trkpt lat="45.88268" lon="4.86973">
        <ele>297.39999389648</ele>
        <time>2014-09-07T09:20:51.000Z</time>
      </trkpt>
      <trkpt lat="45.8826" lon="4.86974">
        <ele>297.60000610352</ele>
        <time>2014-09-07T09:20:53.000Z</time>
      </trkpt>
      <trkpt lat="45.88238" lon="4.86976">
        <ele>298</ele>
        <time>2014-09-07T09:20:59.000Z</time>
      </trkpt>
      <trkpt lat="45.88234" lon="4.86977">
        <ele>298</ele>
        <time>2014-09-07T09:21:00.000Z</time>
      </trkpt>
      <trkpt lat="45.88214" lon="4.86981">
        <ele>298.39999389648</ele>
        <time>2014-09-07T09:21:06.000Z</time>
      </trkpt>
      <trkpt lat="45.88207" lon="4.8698">
        <ele>298.60000610352</ele>
        <time>2014-09-07T09:21:10.000Z</time>
      </trkpt>
      <trkpt lat="45.88207" lon="4.8698">
        <ele>298.60000610352</ele>
        <time>2014-09-07T09:21:11.000Z</time>
      </trkpt>
      <trkpt lat="45.88204" lon="4.86966">
        <ele>298.60000610352</ele>
        <time>2014-09-07T09:26:25.000Z</time>
      </trkpt>
      <trkpt lat="45.88202" lon="4.86928">
        <ele>298.39999389648</ele>
        <time>2014-09-07T09:26:34.000Z</time>
      </trkpt>
      <trkpt lat="45.882" lon="4.8689">
        <ele>298</ele>
        <time>2014-09-07T09:26:42.000Z</time>
      </trkpt>
      <trkpt lat="45.88197" lon="4.86846">
        <ele>298</ele>
        <time>2014-09-07T09:26:51.000Z</time>
      </trkpt>
      <trkpt lat="45.88192" lon="4.86807">
        <ele>298.20001220703</ele>
        <time>2014-09-07T09:26:59.000Z</time>
      </trkpt>
      <trkpt lat="45.88184" lon="4.86761">
        <ele>298</ele>
        <time>2014-09-07T09:27:08.000Z</time>
      </trkpt>
      <trkpt lat="45.88177" lon="4.86722">
        <ele>298.39999389648</ele>
        <time>2014-09-07T09:27:16.000Z</time>
      </trkpt>
      <trkpt lat="45.88174" lon="4.86695">
        <ele>298.79998779297</ele>
        <time>2014-09-07T09:27:22.000Z</time>
      </trkpt>
      <trkpt lat="45.88186" lon="4.86687">
        <ele>298.79998779297</ele>
        <time>2014-09-07T09:27:28.000Z</time>
      </trkpt>
      <trkpt lat="45.88201" lon="4.86686">
        <ele>298.79998779297</ele>
        <time>2014-09-07T09:27:34.000Z</time>
      </trkpt>
      <trkpt lat="45.88221" lon="4.86682">
        <ele>298</ele>
        <time>2014-09-07T09:27:40.000Z</time>
      </trkpt>
      <trkpt lat="45.88247" lon="4.86676">
        <ele>297.39999389648</ele>
        <time>2014-09-07T09:27:47.000Z</time>
      </trkpt>
      <trkpt lat="45.88261" lon="4.86666">
        <ele>297</ele>
        <time>2014-09-07T09:27:52.000Z</time>
      </trkpt>
      <trkpt lat="45.88265" lon="4.86647">
        <ele>297.20001220703</ele>
        <time>2014-09-07T09:27:56.000Z</time>
      </trkpt>
      <trkpt lat="45.88268" lon="4.86613">
        <ele>297.79998779297</ele>
        <time>2014-09-07T09:28:03.000Z</time>
      </trkpt>
      <trkpt lat="45.88269" lon="4.86589">
        <ele>298.20001220703</ele>
        <time>2014-09-07T09:28:08.000Z</time>
      </trkpt>
      <trkpt lat="45.88273" lon="4.86551">
        <ele>299.60000610352</ele>
        <time>2014-09-07T09:28:16.000Z</time>
      </trkpt>
      <trkpt lat="45.88279" lon="4.86511">
        <ele>301.79998779297</ele>
        <time>2014-09-07T09:28:25.000Z</time>
      </trkpt>
      <trkpt lat="45.88287" lon="4.86493">
        <ele>302.20001220703</ele>
        <time>2014-09-07T09:28:30.000Z</time>
      </trkpt>
      <trkpt lat="45.8829" lon="4.86472">
        <ele>302.79998779297</ele>
        <time>2014-09-07T09:28:36.000Z</time>
      </trkpt>
      <trkpt lat="45.88293" lon="4.86452">
        <ele>303.39999389648</ele>
        <time>2014-09-07T09:28:42.000Z</time>
      </trkpt>
      <trkpt lat="45.88295" lon="4.86435">
        <ele>303.79998779297</ele>
        <time>2014-09-07T09:28:48.000Z</time>
      </trkpt>
      <trkpt lat="45.88296" lon="4.86414">
        <ele>304.20001220703</ele>
        <time>2014-09-07T09:28:55.000Z</time>
      </trkpt>
      <trkpt lat="45.88298" lon="4.86393">
        <ele>304.79998779297</ele>
        <time>2014-09-07T09:29:02.000Z</time>
      </trkpt>
      <trkpt lat="45.883" lon="4.86368">
        <ele>305.20001220703</ele>
        <time>2014-09-07T09:29:10.000Z</time>
      </trkpt>
      <trkpt lat="45.88303" lon="4.86345">
        <ele>305.39999389648</ele>
        <time>2014-09-07T09:29:18.000Z</time>
      </trkpt>
      <trkpt lat="45.88301" lon="4.86329">
        <ele>305.60000610352</ele>
        <time>2014-09-07T09:29:24.000Z</time>
      </trkpt>
      <trkpt lat="45.88292" lon="4.86316">
        <ele>305.79998779297</ele>
        <time>2014-09-07T09:29:29.000Z</time>
      </trkpt>
      <trkpt lat="45.88275" lon="4.86312">
        <ele>306.20001220703</ele>
        <time>2014-09-07T09:29:35.000Z</time>
      </trkpt>
      <trkpt lat="45.88258" lon="4.86318">
        <ele>306.20001220703</ele>
        <time>2014-09-07T09:29:41.000Z</time>
      </trkpt>
      <trkpt lat="45.88245" lon="4.8633">
        <ele>306.39999389648</ele>
        <time>2014-09-07T09:29:46.000Z</time>
      </trkpt>
      <trkpt lat="45.88239" lon="4.86347">
        <ele>306.60000610352</ele>
        <time>2014-09-07T09:29:51.000Z</time>
      </trkpt>
      <trkpt lat="45.8824" lon="4.8635">
        <ele>306.60000610352</ele>
        <time>2014-09-07T09:29:54.000Z</time>
      </trkpt>
      <trkpt lat="45.8824" lon="4.8635">
        <ele>306.60000610352</ele>
        <time>2014-09-07T09:29:55.000Z</time>
      </trkpt>
    </trkseg>
  </trk>
</gpx>